UAE447 OMDB-NZAA
Flight info
| Callsign | UAE447 |
|---|---|
| Flight time | N/A |
| Altitude | 31000 |
| Route | ANVIX L223 TARDI N629 GIDAN P570 EMURU M300 VASTU P895 BIKOK M641 DOGAR DCT DAOVO DCT PIBED DCT 09S094E 10S095E DCT POROR DCT 19S106E 21S109E DCT ATLOD DCT ISDOR DCT LEO DCT 32S128E DCT KAMBI N640 AD V255 BENDO Y12 RELEP DCT MOMSY DCT MIKEG N759 PEBLU |
| Aircraft | A388/J-SADE2E3FGHIJ3J4J5M1RWXY/LB1D1 |
Departure
| Time | 2026-04-25 12:42 |
|---|---|
| Airport | Dubai International Airport (OMDB) |
Arrival
| Time | N/A |
|---|---|
| Airport | Auckland International Airport (NZAA) |
| Time | Latitude | Longitude | Altitude | Speed | Heading |
|---|---|---|---|---|---|
| 2026-04-25 12:13 | 25.25345 | 55.35071 | 21 ft | 0 kts | 33° |
| 2026-04-25 12:23 | 25.25340 | 55.35068 | 21 ft | 1 kts | 33° |
| 2026-04-25 12:23 | 25.25332 | 55.35062 | 21 ft | 1 kts | 33° |
| 2026-04-25 12:24 | 25.25324 | 55.35056 | 22 ft | 1 kts | 33° |
| 2026-04-25 12:24 | 25.25316 | 55.35050 | 23 ft | 1 kts | 33° |
| 2026-04-25 12:24 | 25.25308 | 55.35045 | 23 ft | 1 kts | 33° |
| 2026-04-25 12:24 | 25.25300 | 55.35039 | 24 ft | 1 kts | 33° |
| 2026-04-25 12:25 | 25.25291 | 55.35033 | 25 ft | 2 kts | 33° |
| 2026-04-25 12:25 | 25.25279 | 55.35024 | 26 ft | 2 kts | 33° |
| 2026-04-25 12:25 | 25.25267 | 55.35015 | 24 ft | 2 kts | 33° |
| 2026-04-25 12:25 | 25.25255 | 55.35008 | 24 ft | 2 kts | 25° |
| 2026-04-25 12:26 | 25.25241 | 55.35003 | 24 ft | 2 kts | 10° |
| 2026-04-25 12:26 | 25.25232 | 55.35003 | 23 ft | 1 kts | 355° |
| 2026-04-25 12:26 | 25.25225 | 55.35005 | 25 ft | 1 kts | 341° |
| 2026-04-25 12:26 | 25.25220 | 55.35010 | 25 ft | 1 kts | 321° |
| 2026-04-25 12:27 | 25.25217 | 55.35015 | 24 ft | 0 kts | 301° |
| 2026-04-25 12:29 | 25.25222 | 55.35006 | 25 ft | 3 kts | 301° |
| 2026-04-25 12:30 | 25.25232 | 55.34987 | 27 ft | 3 kts | 301° |
| 2026-04-25 12:30 | 25.25239 | 55.34973 | 25 ft | 2 kts | 301° |
| 2026-04-25 12:30 | 25.25261 | 55.34933 | 25 ft | 9 kts | 301° |
| 2026-04-25 12:30 | 25.25289 | 55.34883 | 28 ft | 7 kts | 305° |
| 2026-04-25 12:31 | 25.25294 | 55.34875 | 27 ft | 6 kts | 309° |
| 2026-04-25 12:31 | 25.25343 | 55.34835 | 30 ft | 10 kts | 333° |
| 2026-04-25 12:31 | 25.25404 | 55.34813 | 28 ft | 8 kts | 352° |
| 2026-04-25 12:31 | 25.25464 | 55.34816 | 28 ft | 12 kts | 16° |
| 2026-04-25 12:32 | 25.25539 | 55.34860 | 29 ft | 11 kts | 32° |
| 2026-04-25 12:32 | 25.25602 | 55.34903 | 30 ft | 11 kts | 32° |
| 2026-04-25 12:32 | 25.25666 | 55.34945 | 29 ft | 12 kts | 30° |
| 2026-04-25 12:32 | 25.25737 | 55.34992 | 27 ft | 11 kts | 32° |
| 2026-04-25 12:33 | 25.25803 | 55.35040 | 28 ft | 13 kts | 33° |
| 2026-04-25 12:33 | 25.25908 | 55.35107 | 13 ft | 18 kts | 31° |
| 2026-04-25 12:33 | 25.25986 | 55.35159 | 14 ft | 12 kts | 32° |
| 2026-04-25 12:33 | 25.26062 | 55.35210 | 13 ft | 15 kts | 31° |
| 2026-04-25 12:34 | 25.26121 | 55.35272 | 11 ft | 8 kts | 96° |
| 2026-04-25 12:34 | 25.26094 | 55.35337 | 9 ft | 11 kts | 121° |
| 2026-04-25 12:34 | 25.26048 | 55.35420 | 7 ft | 14 kts | 121° |
| 2026-04-25 12:34 | 25.26014 | 55.35482 | 8 ft | 14 kts | 121° |
| 2026-04-25 12:35 | 25.25942 | 55.35615 | 8 ft | 19 kts | 120° |
| 2026-04-25 12:35 | 25.25869 | 55.35748 | 7 ft | 20 kts | 123° |
| 2026-04-25 12:35 | 25.25793 | 55.35875 | 9 ft | 19 kts | 122° |
| 2026-04-25 12:35 | 25.25721 | 55.36001 | 10 ft | 19 kts | 121° |
| 2026-04-25 12:36 | 25.25659 | 55.36122 | 13 ft | 17 kts | 121° |
| 2026-04-25 12:36 | 25.25599 | 55.36231 | 14 ft | 17 kts | 120° |
| 2026-04-25 12:36 | 25.25514 | 55.36386 | 13 ft | 25 kts | 121° |
| 2026-04-25 12:36 | 25.25426 | 55.36545 | 14 ft | 24 kts | 121° |
| 2026-04-25 12:37 | 25.25337 | 55.36704 | 13 ft | 24 kts | 121° |
| 2026-04-25 12:37 | 25.25254 | 55.36853 | 16 ft | 22 kts | 121° |
| 2026-04-25 12:37 | 25.25177 | 55.36994 | 20 ft | 20 kts | 121° |
| 2026-04-25 12:37 | 25.25108 | 55.37116 | 27 ft | 18 kts | 122° |
| 2026-04-25 12:38 | 25.25030 | 55.37262 | 27 ft | 22 kts | 120° |
| 2026-04-25 12:38 | 25.24955 | 55.37397 | 30 ft | 20 kts | 123° |
| 2026-04-25 12:38 | 25.24882 | 55.37526 | 29 ft | 19 kts | 121° |
| 2026-04-25 12:38 | 25.24813 | 55.37652 | 29 ft | 19 kts | 121° |
| 2026-04-25 12:39 | 25.24744 | 55.37776 | 30 ft | 19 kts | 121° |
| 2026-04-25 12:39 | 25.24700 | 55.37855 | 30 ft | 5 kts | 121° |
| 2026-04-25 12:39 | 25.24671 | 55.37913 | 31 ft | 8 kts | 103° |
| 2026-04-25 12:39 | 25.24674 | 55.37945 | 33 ft | 3 kts | 62° |
| 2026-04-25 12:40 | 25.24705 | 55.37979 | 36 ft | 6 kts | 28° |
| 2026-04-25 12:40 | 25.24759 | 55.38012 | 38 ft | 10 kts | 27° |
| 2026-04-25 12:40 | 25.24807 | 55.38013 | 38 ft | 6 kts | 327° |
| 2026-04-25 12:40 | 25.24826 | 55.37985 | 38 ft | 5 kts | 298° |
| 2026-04-25 12:41 | 25.24832 | 55.37973 | 37 ft | 0 kts | 301° |
| 2026-04-25 12:41 | 25.24877 | 55.37890 | 38 ft | 36 kts | 301° |
| 2026-04-25 12:41 | 25.25126 | 55.37442 | 35 ft | 99 kts | 301° |
| 2026-04-25 12:41 | 25.25582 | 55.36635 | 26 ft | 146 kts | 302° |
| 2026-04-25 12:42 | 25.26162 | 55.35583 | 9 ft | 177 kts | 302° |
| 2026-04-25 12:42 | 25.26386 | 55.35185 | 28 ft | 183 kts | 303° |
| 2026-04-25 12:42 | 25.27461 | 55.33181 | 563 ft | 187 kts | 301° |
| 2026-04-25 12:42 | 25.28130 | 55.31944 | 865 ft | 189 kts | 302° |
| 2026-04-25 12:43 | 25.28829 | 55.30676 | 1130 ft | 196 kts | 301° |
| 2026-04-25 12:43 | 25.29307 | 55.29285 | 1456 ft | 193 kts | 272° |
| 2026-04-25 12:43 | 25.28352 | 55.26527 | 1784 ft | 199 kts | 246° |
| 2026-04-25 12:44 | 25.27733 | 55.25133 | 1893 ft | 203 kts | 246° |
| 2026-04-25 12:44 | 25.27124 | 55.23732 | 2053 ft | 205 kts | 247° |
| 2026-04-25 12:44 | 25.25851 | 55.20730 | 2381 ft | 225 kts | 246° |
| 2026-04-25 12:45 | 25.25165 | 55.19118 | 2510 ft | 238 kts | 245° |
| 2026-04-25 12:45 | 25.24123 | 55.17638 | 2636 ft | 254 kts | 217° |
| 2026-04-25 12:45 | 25.20626 | 55.16826 | 3112 ft | 275 kts | 173° |
| 2026-04-25 12:46 | 25.18771 | 55.17417 | 3369 ft | 280 kts | 148° |
| 2026-04-25 12:46 | 25.17385 | 55.18809 | 4009 ft | 267 kts | 122° |
| 2026-04-25 12:46 | 25.16480 | 55.20625 | 4253 ft | 276 kts | 115° |
| 2026-04-25 12:46 | 25.15661 | 55.22596 | 4496 ft | 285 kts | 115° |
| 2026-04-25 12:47 | 25.14830 | 55.24558 | 4885 ft | 287 kts | 116° |
| 2026-04-25 12:47 | 25.13937 | 55.26547 | 5205 ft | 292 kts | 117° |
| 2026-04-25 12:47 | 25.13005 | 55.28535 | 5628 ft | 293 kts | 118° |
| 2026-04-25 12:47 | 25.12055 | 55.30525 | 6094 ft | 291 kts | 119° |
| 2026-04-25 12:48 | 25.11100 | 55.32510 | 6347 ft | 297 kts | 119° |
| 2026-04-25 12:48 | 25.10194 | 55.34562 | 6732 ft | 298 kts | 116° |
| 2026-04-25 12:48 | 25.09629 | 55.35947 | 6999 ft | 297 kts | 116° |
| 2026-04-25 12:48 | 25.08780 | 55.38018 | 7447 ft | 298 kts | 116° |
| 2026-04-25 12:49 | 25.07630 | 55.40803 | 8019 ft | 297 kts | 116° |
| 2026-04-25 12:49 | 25.07059 | 55.42186 | 8216 ft | 301 kts | 116° |
| 2026-04-25 12:49 | 25.06221 | 55.44313 | 8605 ft | 303 kts | 115° |
| 2026-04-25 12:49 | 25.05403 | 55.46459 | 9069 ft | 302 kts | 114° |
| 2026-04-25 12:50 | 25.04590 | 55.48602 | 9496 ft | 303 kts | 114° |
| 2026-04-25 12:50 | 25.03774 | 55.50746 | 9903 ft | 304 kts | 115° |
| 2026-04-25 12:50 | 25.02947 | 55.52906 | 10226 ft | 309 kts | 116° |
| 2026-04-25 12:50 | 25.02081 | 55.55123 | 10342 ft | 319 kts | 118° |
| 2026-04-25 12:51 | 25.00983 | 55.57279 | 10431 ft | 327 kts | 124° |
| 2026-04-25 12:51 | 24.99782 | 55.59459 | 10539 ft | 339 kts | 124° |
| 2026-04-25 12:51 | 24.98559 | 55.61715 | 10743 ft | 345 kts | 123° |
| 2026-04-25 12:51 | 24.97328 | 55.63998 | 11085 ft | 347 kts | 123° |
| 2026-04-25 12:52 | 24.96090 | 55.66296 | 11430 ft | 350 kts | 123° |
| 2026-04-25 12:52 | 24.94841 | 55.68611 | 11776 ft | 352 kts | 123° |
| 2026-04-25 12:52 | 24.93516 | 55.70883 | 12160 ft | 351 kts | 130° |
| 2026-04-25 12:52 | 24.92054 | 55.73043 | 12547 ft | 352 kts | 129° |
| 2026-04-25 12:53 | 24.90573 | 55.75206 | 12707 ft | 358 kts | 130° |
| 2026-04-25 12:53 | 24.89082 | 55.77428 | 13073 ft | 359 kts | 128° |
| 2026-04-25 12:53 | 24.87648 | 55.79630 | 13456 ft | 361 kts | 127° |
| 2026-04-25 12:53 | 24.86170 | 55.81896 | 13763 ft | 365 kts | 128° |
| 2026-04-25 12:54 | 24.84686 | 55.84156 | 14214 ft | 362 kts | 128° |
| 2026-04-25 12:54 | 24.83198 | 55.86403 | 14528 ft | 365 kts | 129° |
| 2026-04-25 12:54 | 24.81672 | 55.88660 | 14777 ft | 369 kts | 130° |
| 2026-04-25 12:54 | 24.80132 | 55.90922 | 15055 ft | 372 kts | 128° |
| 2026-04-25 12:55 | 24.78566 | 55.93198 | 15361 ft | 373 kts | 133° |
| 2026-04-25 12:55 | 24.77392 | 55.94634 | 15543 ft | 374 kts | 137° |
| 2026-04-25 12:55 | 24.74863 | 55.97209 | 15974 ft | 375 kts | 140° |
| 2026-04-25 12:55 | 24.72940 | 55.99174 | 16248 ft | 379 kts | 139° |
| 2026-04-25 12:56 | 24.71009 | 56.01162 | 16530 ft | 381 kts | 140° |
| 2026-04-25 12:56 | 24.69063 | 56.03165 | 16831 ft | 384 kts | 139° |
| 2026-04-25 12:56 | 24.67111 | 56.05176 | 17112 ft | 386 kts | 140° |
| 2026-04-25 12:56 | 24.65146 | 56.07201 | 17441 ft | 387 kts | 139° |
| 2026-04-25 12:57 | 24.63184 | 56.09224 | 17817 ft | 387 kts | 140° |
| 2026-04-25 12:57 | 24.61211 | 56.11255 | 18073 ft | 390 kts | 139° |
| 2026-04-25 12:57 | 24.59221 | 56.13303 | 18345 ft | 392 kts | 140° |
| 2026-04-25 12:57 | 24.57232 | 56.15366 | 18583 ft | 395 kts | 137° |
| 2026-04-25 12:58 | 24.55402 | 56.17635 | 18809 ft | 399 kts | 133° |
| 2026-04-25 12:58 | 24.53602 | 56.19956 | 19040 ft | 401 kts | 133° |
| 2026-04-25 12:58 | 24.51781 | 56.22282 | 19307 ft | 402 kts | 133° |
| 2026-04-25 12:58 | 24.49950 | 56.24612 | 19525 ft | 404 kts | 133° |
| 2026-04-25 12:59 | 24.48133 | 56.26922 | 19760 ft | 406 kts | 133° |
| 2026-04-25 12:59 | 24.46286 | 56.29271 | 20002 ft | 407 kts | 133° |
| 2026-04-25 12:59 | 24.44431 | 56.31631 | 20292 ft | 406 kts | 133° |
| 2026-04-25 12:59 | 24.42590 | 56.33973 | 20571 ft | 407 kts | 133° |
| 2026-04-25 13:00 | 24.40734 | 56.36332 | 20726 ft | 410 kts | 133° |
| 2026-04-25 13:00 | 24.39465 | 56.37942 | 20864 ft | 412 kts | 133° |
| 2026-04-25 13:00 | 24.36981 | 56.41094 | 21133 ft | 414 kts | 133° |
| 2026-04-25 13:00 | 24.35089 | 56.43493 | 21352 ft | 416 kts | 133° |
| 2026-04-25 13:01 | 24.33190 | 56.45901 | 21540 ft | 418 kts | 133° |
| 2026-04-25 13:01 | 24.31281 | 56.48321 | 21720 ft | 421 kts | 133° |
| 2026-04-25 13:01 | 24.29402 | 56.50786 | 21949 ft | 423 kts | 128° |
| 2026-04-25 13:01 | 24.27675 | 56.53417 | 22143 ft | 425 kts | 127° |
| 2026-04-25 13:02 | 24.25941 | 56.56046 | 22366 ft | 427 kts | 128° |
| 2026-04-25 13:02 | 24.24191 | 56.58685 | 22558 ft | 429 kts | 127° |
| 2026-04-25 13:02 | 24.22433 | 56.61332 | 22753 ft | 431 kts | 127° |
| 2026-04-25 13:02 | 24.20665 | 56.63993 | 22968 ft | 433 kts | 127° |
| 2026-04-25 13:03 | 24.18890 | 56.66661 | 23174 ft | 434 kts | 127° |
| 2026-04-25 13:03 | 24.17105 | 56.69346 | 23392 ft | 436 kts | 127° |
| 2026-04-25 13:03 | 24.15318 | 56.72030 | 23579 ft | 438 kts | 127° |
| 2026-04-25 13:03 | 24.13521 | 56.74729 | 23771 ft | 439 kts | 127° |
| 2026-04-25 13:04 | 24.11722 | 56.77430 | 23972 ft | 440 kts | 127° |
| 2026-04-25 13:04 | 24.09919 | 56.80135 | 24154 ft | 441 kts | 127° |
| 2026-04-25 13:04 | 24.08110 | 56.82849 | 24353 ft | 442 kts | 127° |
| 2026-04-25 13:04 | 24.06292 | 56.85572 | 24533 ft | 443 kts | 127° |
| 2026-04-25 13:05 | 24.04475 | 56.88294 | 24721 ft | 444 kts | 127° |
| 2026-04-25 13:05 | 24.02650 | 56.91027 | 24899 ft | 445 kts | 127° |
| 2026-04-25 13:05 | 24.00838 | 56.93735 | 24900 ft | 448 kts | 127° |
| 2026-04-25 13:05 | 23.98998 | 56.96483 | 24886 ft | 446 kts | 127° |
| 2026-04-25 13:06 | 23.97166 | 56.99219 | 24895 ft | 445 kts | 127° |
| 2026-04-25 13:06 | 23.95335 | 57.01951 | 24931 ft | 446 kts | 127° |
| 2026-04-25 13:06 | 23.93499 | 57.04690 | 25089 ft | 447 kts | 127° |
| 2026-04-25 13:06 | 23.91659 | 57.07432 | 25285 ft | 448 kts | 127° |
| 2026-04-25 13:07 | 23.89814 | 57.10181 | 25478 ft | 449 kts | 127° |
| 2026-04-25 13:07 | 23.87966 | 57.12933 | 25666 ft | 450 kts | 127° |
| 2026-04-25 13:07 | 23.86107 | 57.15699 | 25828 ft | 451 kts | 127° |
| 2026-04-25 13:07 | 23.84250 | 57.18464 | 26010 ft | 453 kts | 127° |
| 2026-04-25 13:08 | 23.82382 | 57.21242 | 26228 ft | 454 kts | 127° |
| 2026-04-25 13:08 | 23.80509 | 57.24027 | 26417 ft | 455 kts | 127° |
| 2026-04-25 13:08 | 23.78630 | 57.26818 | 26637 ft | 457 kts | 127° |
| 2026-04-25 13:08 | 23.76744 | 57.29619 | 26812 ft | 458 kts | 127° |
| 2026-04-25 13:09 | 23.74854 | 57.32425 | 27045 ft | 460 kts | 127° |
| 2026-04-25 13:09 | 23.72951 | 57.35246 | 27266 ft | 461 kts | 127° |
| 2026-04-25 13:09 | 23.71035 | 57.38064 | 27481 ft | 463 kts | 129° |
| 2026-04-25 13:09 | 23.69047 | 57.40820 | 27730 ft | 463 kts | 130° |
| 2026-04-25 13:10 | 23.67022 | 57.43563 | 27952 ft | 465 kts | 130° |
| 2026-04-25 13:10 | 23.64987 | 57.46322 | 28201 ft | 466 kts | 130° |
| 2026-04-25 13:10 | 23.62960 | 57.49085 | 28433 ft | 468 kts | 130° |
| 2026-04-25 13:10 | 23.60928 | 57.51867 | 28667 ft | 469 kts | 129° |
| 2026-04-25 13:11 | 23.58918 | 57.54622 | 28865 ft | 471 kts | 129° |
| 2026-04-25 13:11 | 23.56873 | 57.57429 | 28911 ft | 473 kts | 129° |
| 2026-04-25 13:11 | 23.52783 | 57.63039 | 28899 ft | 471 kts | 129° |
| 2026-04-25 13:12 | 23.48704 | 57.68627 | 28922 ft | 471 kts | 129° |
| 2026-04-25 13:12 | 23.45313 | 57.73263 | 28908 ft | 471 kts | 129° |
| 2026-04-25 13:13 | 23.40524 | 57.79799 | 28933 ft | 472 kts | 129° |
| 2026-04-25 13:13 | 23.36424 | 57.85389 | 28917 ft | 472 kts | 129° |
| 2026-04-25 13:14 | 23.32331 | 57.90964 | 28930 ft | 471 kts | 129° |
| 2026-04-25 13:14 | 23.28262 | 57.96501 | 28917 ft | 472 kts | 129° |
| 2026-04-25 13:15 | 23.24181 | 58.02115 | 28923 ft | 473 kts | 125° |
| 2026-04-25 13:15 | 23.20473 | 58.08023 | 28913 ft | 472 kts | 124° |
| 2026-04-25 13:16 | 23.16759 | 58.13905 | 28920 ft | 472 kts | 124° |
| 2026-04-25 13:16 | 23.13064 | 58.19745 | 28912 ft | 472 kts | 124° |
| 2026-04-25 13:17 | 23.09332 | 58.25638 | 28905 ft | 471 kts | 124° |
| 2026-04-25 13:17 | 23.05611 | 58.31508 | 28910 ft | 471 kts | 124° |
| 2026-04-25 13:18 | 23.01569 | 58.37000 | 28906 ft | 467 kts | 137° |
| 2026-04-25 13:18 | 22.96363 | 58.41158 | 28910 ft | 465 kts | 150° |
| 2026-04-25 13:19 | 22.90829 | 58.44802 | 28910 ft | 466 kts | 149° |
| 2026-04-25 13:19 | 22.87128 | 58.47264 | 28908 ft | 466 kts | 149° |
| 2026-04-25 13:20 | 22.80713 | 58.51520 | 28894 ft | 464 kts | 150° |
| 2026-04-25 13:20 | 22.74275 | 58.55781 | 28898 ft | 464 kts | 150° |
| 2026-04-25 13:21 | 22.68759 | 58.59426 | 28892 ft | 464 kts | 150° |
| 2026-04-25 13:21 | 22.63278 | 58.63046 | 28891 ft | 464 kts | 150° |
| 2026-04-25 13:22 | 22.57760 | 58.66687 | 28890 ft | 464 kts | 150° |
| 2026-04-25 13:23 | 22.49431 | 58.72177 | 28889 ft | 466 kts | 150° |
| 2026-04-25 13:23 | 22.43941 | 58.75792 | 28892 ft | 465 kts | 150° |
| 2026-04-25 13:24 | 22.38417 | 58.79425 | 28893 ft | 465 kts | 149° |
| 2026-04-25 13:24 | 22.32898 | 58.83052 | 28892 ft | 464 kts | 150° |
| 2026-04-25 13:25 | 22.27362 | 58.86685 | 28891 ft | 466 kts | 149° |
| 2026-04-25 13:25 | 22.22223 | 58.90938 | 28885 ft | 468 kts | 136° |
| 2026-04-25 13:26 | 22.17962 | 58.96245 | 28890 ft | 468 kts | 130° |
| 2026-04-25 13:26 | 22.13816 | 59.01632 | 28880 ft | 466 kts | 130° |
| 2026-04-25 13:27 | 22.09654 | 59.07013 | 28878 ft | 468 kts | 130° |
| 2026-04-25 13:27 | 22.05487 | 59.12402 | 28879 ft | 466 kts | 130° |
| 2026-04-25 13:28 | 22.01329 | 59.17776 | 28874 ft | 468 kts | 130° |
| 2026-04-25 13:28 | 21.97153 | 59.23168 | 28876 ft | 468 kts | 130° |
| 2026-04-25 13:29 | 21.92995 | 59.28532 | 28869 ft | 466 kts | 130° |
| 2026-04-25 13:29 | 21.88852 | 59.33871 | 28868 ft | 468 kts | 130° |
| 2026-04-25 13:30 | 21.82578 | 59.41946 | 28866 ft | 468 kts | 130° |
| 2026-04-25 13:31 | 21.76286 | 59.50032 | 28860 ft | 468 kts | 130° |
| 2026-04-25 13:31 | 21.72111 | 59.55391 | 28865 ft | 467 kts | 130° |
| 2026-04-25 13:32 | 21.67922 | 59.60762 | 28860 ft | 469 kts | 130° |
| 2026-04-25 13:32 | 21.63720 | 59.66144 | 28865 ft | 469 kts | 130° |
| 2026-04-25 13:33 | 21.59541 | 59.71493 | 28860 ft | 472 kts | 130° |
| 2026-04-25 13:33 | 21.55331 | 59.76876 | 28867 ft | 469 kts | 130° |
| 2026-04-25 13:34 | 21.51121 | 59.82232 | 28870 ft | 471 kts | 130° |
| 2026-04-25 13:34 | 21.46876 | 59.87617 | 28868 ft | 471 kts | 130° |
| 2026-04-25 13:35 | 21.42653 | 59.92974 | 28862 ft | 470 kts | 130° |
| 2026-04-25 13:35 | 21.38427 | 59.98330 | 28869 ft | 471 kts | 130° |
| 2026-04-25 13:36 | 21.34911 | 60.02781 | 28873 ft | 469 kts | 130° |
| 2026-04-25 13:36 | 21.30689 | 60.08122 | 28876 ft | 470 kts | 130° |
| 2026-04-25 13:37 | 21.26454 | 60.13475 | 28876 ft | 471 kts | 130° |
| 2026-04-25 13:37 | 21.22224 | 60.18820 | 28878 ft | 469 kts | 130° |
| 2026-04-25 13:38 | 21.18001 | 60.24167 | 28879 ft | 470 kts | 129° |
| 2026-04-25 13:38 | 21.13783 | 60.29505 | 28888 ft | 468 kts | 129° |
| 2026-04-25 13:39 | 21.09573 | 60.34824 | 28886 ft | 469 kts | 129° |
| 2026-04-25 13:39 | 21.05379 | 60.40118 | 28887 ft | 469 kts | 130° |
| 2026-04-25 13:40 | 21.01163 | 60.45434 | 28886 ft | 468 kts | 130° |
| 2026-04-25 13:40 | 20.96944 | 60.50749 | 28885 ft | 468 kts | 129° |
| 2026-04-25 13:41 | 20.92735 | 60.56045 | 28886 ft | 466 kts | 129° |
| 2026-04-25 13:41 | 20.88537 | 60.61323 | 28887 ft | 466 kts | 129° |
| 2026-04-25 13:42 | 20.84335 | 60.66603 | 28892 ft | 466 kts | 129° |
| 2026-04-25 13:42 | 20.80128 | 60.71883 | 28892 ft | 467 kts | 129° |
| 2026-04-25 13:43 | 20.75917 | 60.77162 | 28889 ft | 466 kts | 129° |
| 2026-04-25 13:43 | 20.71713 | 60.82427 | 28896 ft | 466 kts | 129° |
| 2026-04-25 13:44 | 20.67509 | 60.87689 | 28902 ft | 465 kts | 129° |
| 2026-04-25 13:44 | 20.63303 | 60.92948 | 28898 ft | 465 kts | 129° |
| 2026-04-25 13:45 | 20.59561 | 60.98495 | 28892 ft | 464 kts | 121° |
| 2026-04-25 13:45 | 20.56108 | 61.04315 | 28905 ft | 464 kts | 121° |
| 2026-04-25 13:46 | 20.52637 | 61.10123 | 28895 ft | 463 kts | 121° |
| 2026-04-25 13:46 | 20.49172 | 61.15919 | 28901 ft | 463 kts | 121° |
| 2026-04-25 13:47 | 20.45713 | 61.21700 | 28901 ft | 462 kts | 121° |
| 2026-04-25 13:47 | 20.42254 | 61.27473 | 28901 ft | 462 kts | 121° |
| 2026-04-25 13:48 | 20.38792 | 61.33246 | 28904 ft | 462 kts | 121° |
| 2026-04-25 13:48 | 20.35333 | 61.39010 | 28903 ft | 461 kts | 121° |
| 2026-04-25 13:49 | 20.31877 | 61.44761 | 28903 ft | 461 kts | 121° |
| 2026-04-25 13:49 | 20.28441 | 61.50475 | 28903 ft | 461 kts | 121° |
| 2026-04-25 13:50 | 20.24978 | 61.56227 | 28898 ft | 461 kts | 120° |
| 2026-04-25 13:50 | 20.21523 | 61.61960 | 28901 ft | 460 kts | 121° |
| 2026-04-25 13:51 | 20.18065 | 61.67693 | 28906 ft | 460 kts | 121° |
| 2026-04-25 13:51 | 20.14601 | 61.73429 | 28903 ft | 460 kts | 121° |
| 2026-04-25 13:52 | 20.11135 | 61.79164 | 28901 ft | 460 kts | 121° |
| 2026-04-25 13:52 | 20.07673 | 61.84887 | 28903 ft | 460 kts | 121° |
| 2026-04-25 13:53 | 20.04201 | 61.90621 | 28906 ft | 460 kts | 121° |
| 2026-04-25 13:53 | 20.00761 | 61.96294 | 28901 ft | 457 kts | 120° |
| 2026-04-25 13:54 | 19.97318 | 62.01982 | 28907 ft | 457 kts | 120° |
| 2026-04-25 13:54 | 19.93860 | 62.07668 | 28907 ft | 458 kts | 120° |
| 2026-04-25 13:55 | 19.90398 | 62.13358 | 28903 ft | 458 kts | 121° |
| 2026-04-25 13:55 | 19.86938 | 62.19044 | 28903 ft | 458 kts | 121° |
| 2026-04-25 13:56 | 19.83478 | 62.24724 | 28900 ft | 457 kts | 121° |
| 2026-04-25 13:56 | 19.80022 | 62.30394 | 28904 ft | 457 kts | 121° |
| 2026-04-25 13:57 | 19.76563 | 62.36063 | 28906 ft | 457 kts | 121° |
| 2026-04-25 13:57 | 19.73102 | 62.41729 | 28905 ft | 457 kts | 121° |
| 2026-04-25 13:58 | 19.69640 | 62.47392 | 28906 ft | 457 kts | 121° |
| 2026-04-25 13:58 | 19.66178 | 62.53047 | 28904 ft | 457 kts | 121° |
| 2026-04-25 13:59 | 19.62708 | 62.58712 | 28903 ft | 458 kts | 121° |
| 2026-04-25 13:59 | 19.59260 | 62.64335 | 28903 ft | 458 kts | 121° |
| 2026-04-25 14:00 | 19.55790 | 62.69990 | 28903 ft | 457 kts | 121° |
| 2026-04-25 14:00 | 19.52320 | 62.75639 | 28909 ft | 457 kts | 121° |
| 2026-04-25 14:01 | 19.48849 | 62.81284 | 28906 ft | 457 kts | 121° |
| 2026-04-25 14:01 | 19.45377 | 62.86925 | 28905 ft | 458 kts | 121° |
| 2026-04-25 14:02 | 19.41895 | 62.92578 | 28901 ft | 458 kts | 121° |
| 2026-04-25 14:02 | 19.38412 | 62.98227 | 28904 ft | 458 kts | 121° |
| 2026-04-25 14:03 | 19.34926 | 63.03874 | 28909 ft | 458 kts | 121° |
| 2026-04-25 14:03 | 19.31446 | 63.09510 | 28906 ft | 458 kts | 121° |
| 2026-04-25 14:04 | 19.27951 | 63.15161 | 28903 ft | 460 kts | 121° |
| 2026-04-25 14:04 | 19.24466 | 63.20793 | 28903 ft | 460 kts | 121° |
| 2026-04-25 14:05 | 19.20934 | 63.26495 | 28903 ft | 460 kts | 121° |
| 2026-04-25 14:05 | 19.17451 | 63.32112 | 28903 ft | 460 kts | 121° |
| 2026-04-25 14:06 | 19.13944 | 63.37763 | 28905 ft | 460 kts | 121° |
| 2026-04-25 14:06 | 19.10429 | 63.43422 | 28906 ft | 460 kts | 121° |
| 2026-04-25 14:07 | 19.06921 | 63.49064 | 28903 ft | 461 kts | 121° |
| 2026-04-25 14:07 | 19.03392 | 63.54738 | 28903 ft | 461 kts | 121° |
| 2026-04-25 14:08 | 18.99867 | 63.60400 | 28899 ft | 461 kts | 121° |
| 2026-04-25 14:08 | 18.96338 | 63.66057 | 28897 ft | 461 kts | 121° |
| 2026-04-25 14:09 | 18.92807 | 63.71718 | 28902 ft | 461 kts | 121° |
| 2026-04-25 14:09 | 18.89282 | 63.77368 | 28900 ft | 461 kts | 121° |
| 2026-04-25 14:10 | 18.85751 | 63.83020 | 28899 ft | 461 kts | 121° |
| 2026-04-25 14:10 | 18.82217 | 63.88672 | 28897 ft | 460 kts | 121° |
| 2026-04-25 14:11 | 18.78721 | 63.94258 | 28899 ft | 458 kts | 121° |
| 2026-04-25 14:11 | 18.75183 | 63.99905 | 28900 ft | 459 kts | 121° |
| 2026-04-25 14:12 | 18.71681 | 64.05492 | 28900 ft | 459 kts | 121° |
| 2026-04-25 14:12 | 18.68157 | 64.11107 | 28901 ft | 459 kts | 121° |
| 2026-04-25 14:13 | 18.64628 | 64.16725 | 28899 ft | 459 kts | 121° |
| 2026-04-25 14:13 | 18.61102 | 64.22333 | 28897 ft | 459 kts | 121° |
| 2026-04-25 14:14 | 18.57574 | 64.27940 | 28897 ft | 458 kts | 121° |
| 2026-04-25 14:14 | 18.54059 | 64.33522 | 28899 ft | 456 kts | 121° |
| 2026-04-25 14:15 | 18.50547 | 64.39093 | 28902 ft | 455 kts | 121° |
| 2026-04-25 14:15 | 18.47044 | 64.44647 | 28903 ft | 455 kts | 121° |
| 2026-04-25 14:16 | 18.43560 | 64.50164 | 28903 ft | 455 kts | 121° |
| 2026-04-25 14:16 | 18.40050 | 64.55718 | 28899 ft | 455 kts | 121° |
| 2026-04-25 14:17 | 18.36536 | 64.61274 | 28900 ft | 455 kts | 121° |
| 2026-04-25 14:17 | 18.33024 | 64.66822 | 28905 ft | 455 kts | 120° |
| 2026-04-25 14:18 | 18.29517 | 64.72356 | 28907 ft | 454 kts | 120° |
| 2026-04-25 14:18 | 18.26011 | 64.77885 | 28902 ft | 454 kts | 120° |
| 2026-04-25 14:19 | 18.22501 | 64.83415 | 28901 ft | 454 kts | 120° |
| 2026-04-25 14:19 | 18.18991 | 64.88941 | 28902 ft | 454 kts | 120° |
| 2026-04-25 14:20 | 18.15479 | 64.94465 | 28900 ft | 454 kts | 120° |
| 2026-04-25 14:20 | 18.11965 | 64.99986 | 28898 ft | 454 kts | 120° |
| 2026-04-25 14:21 | 18.08478 | 65.05462 | 28904 ft | 453 kts | 120° |
| 2026-04-25 14:21 | 18.04973 | 65.10960 | 28902 ft | 451 kts | 120° |
| 2026-04-25 14:22 | 18.01484 | 65.16430 | 28904 ft | 451 kts | 120° |
| 2026-04-25 14:22 | 17.97990 | 65.21903 | 28903 ft | 451 kts | 120° |
| 2026-04-25 14:23 | 17.95085 | 65.26449 | 28896 ft | 451 kts | 120° |
| 2026-04-25 14:23 | 17.91588 | 65.31917 | 28900 ft | 451 kts | 120° |
| 2026-04-25 14:24 | 17.88085 | 65.37390 | 28897 ft | 450 kts | 120° |
| 2026-04-25 14:24 | 17.84591 | 65.42846 | 28897 ft | 450 kts | 120° |
| 2026-04-25 14:25 | 17.81090 | 65.48307 | 28901 ft | 450 kts | 120° |
| 2026-04-25 14:25 | 17.77605 | 65.53739 | 28897 ft | 449 kts | 120° |
| 2026-04-25 14:26 | 17.74112 | 65.59180 | 28897 ft | 449 kts | 120° |
| 2026-04-25 14:26 | 17.70624 | 65.64608 | 28898 ft | 449 kts | 120° |
| 2026-04-25 14:27 | 17.67135 | 65.70031 | 28899 ft | 448 kts | 120° |
| 2026-04-25 14:27 | 17.63646 | 65.75454 | 28895 ft | 448 kts | 120° |
| 2026-04-25 14:28 | 17.60178 | 65.80879 | 28893 ft | 448 kts | 118° |
| 2026-04-25 14:28 | 17.56833 | 65.86338 | 28894 ft | 448 kts | 118° |
| 2026-04-25 14:29 | 17.53466 | 65.91831 | 28892 ft | 448 kts | 118° |
| 2026-04-25 14:29 | 17.50081 | 65.97324 | 28892 ft | 449 kts | 119° |
| 2026-04-25 14:30 | 17.46681 | 66.02827 | 28892 ft | 450 kts | 119° |
| 2026-04-25 14:30 | 17.41572 | 66.11088 | 28896 ft | 450 kts | 119° |
| 2026-04-25 14:31 | 17.38170 | 66.16584 | 28892 ft | 450 kts | 119° |
| 2026-04-25 14:31 | 17.34753 | 66.22099 | 28895 ft | 450 kts | 119° |
| 2026-04-25 14:32 | 17.31342 | 66.27601 | 28896 ft | 451 kts | 120° |
| 2026-04-25 14:32 | 17.27918 | 66.33119 | 28892 ft | 452 kts | 120° |
| 2026-04-25 14:33 | 17.24513 | 66.38601 | 28894 ft | 452 kts | 120° |
| 2026-04-25 14:33 | 17.21087 | 66.44113 | 28891 ft | 452 kts | 120° |
| 2026-04-25 14:34 | 17.17661 | 66.49622 | 28889 ft | 452 kts | 120° |
| 2026-04-25 14:34 | 17.14230 | 66.55133 | 28888 ft | 452 kts | 120° |
| 2026-04-25 14:35 | 17.10798 | 66.60644 | 28889 ft | 453 kts | 120° |
| 2026-04-25 14:35 | 17.07351 | 66.66170 | 28890 ft | 454 kts | 120° |
| 2026-04-25 14:36 | 17.03902 | 66.71697 | 28891 ft | 454 kts | 120° |
| 2026-04-25 14:36 | 17.00468 | 66.77197 | 28889 ft | 455 kts | 121° |
| 2026-04-25 14:37 | 16.97006 | 66.82735 | 28888 ft | 455 kts | 121° |
| 2026-04-25 14:37 | 16.93538 | 66.88278 | 28886 ft | 455 kts | 121° |
| 2026-04-25 14:38 | 16.90077 | 66.93808 | 28887 ft | 455 kts | 122° |
| 2026-04-25 14:38 | 16.86613 | 66.99336 | 28890 ft | 455 kts | 122° |
| 2026-04-25 14:39 | 16.83142 | 67.04870 | 28888 ft | 455 kts | 122° |
| 2026-04-25 14:39 | 16.79673 | 67.10399 | 28886 ft | 455 kts | 122° |
| 2026-04-25 14:40 | 16.76231 | 67.15935 | 28890 ft | 455 kts | 122° |
| 2026-04-25 14:40 | 16.72765 | 67.21415 | 28889 ft | 455 kts | 123° |
| 2026-04-25 14:41 | 16.69269 | 67.26955 | 28889 ft | 459 kts | 123° |
| 2026-04-25 14:41 | 16.65763 | 67.32521 | 28890 ft | 458 kts | 123° |
| 2026-04-25 14:42 | 16.62858 | 67.37133 | 28887 ft | 458 kts | 123° |
| 2026-04-25 14:42 | 16.58771 | 67.43616 | 28889 ft | 458 kts | 123° |
| 2026-04-25 14:43 | 16.55272 | 67.49160 | 28889 ft | 458 kts | 123° |
| 2026-04-25 14:43 | 16.51770 | 67.54707 | 28887 ft | 458 kts | 124° |
| 2026-04-25 14:44 | 16.48257 | 67.60266 | 28889 ft | 460 kts | 124° |
| 2026-04-25 14:44 | 16.44724 | 67.65853 | 28889 ft | 462 kts | 125° |
| 2026-04-25 14:45 | 16.41187 | 67.71438 | 28889 ft | 462 kts | 125° |
| 2026-04-25 14:45 | 16.37654 | 67.77015 | 28889 ft | 461 kts | 125° |
| 2026-04-25 14:46 | 16.34116 | 67.82597 | 28890 ft | 461 kts | 125° |
| 2026-04-25 14:46 | 16.30601 | 67.88137 | 28888 ft | 462 kts | 125° |
| 2026-04-25 14:47 | 16.27657 | 67.92775 | 28888 ft | 461 kts | 125° |
| 2026-04-25 14:47 | 16.23532 | 67.99306 | 28886 ft | 462 kts | 125° |
| 2026-04-25 14:48 | 16.20021 | 68.04899 | 28883 ft | 462 kts | 126° |
| 2026-04-25 14:48 | 16.16506 | 68.10489 | 28889 ft | 462 kts | 127° |
| 2026-04-25 14:49 | 16.12982 | 68.16081 | 28891 ft | 462 kts | 127° |
| 2026-04-25 14:49 | 16.09459 | 68.21673 | 28886 ft | 463 kts | 128° |
| 2026-04-25 14:50 | 16.05940 | 68.27246 | 28889 ft | 464 kts | 128° |
| 2026-04-25 14:50 | 16.02397 | 68.32858 | 28888 ft | 464 kts | 128° |
| 2026-04-25 14:51 | 15.98857 | 68.38460 | 28889 ft | 463 kts | 128° |
| 2026-04-25 14:51 | 15.95315 | 68.44061 | 28890 ft | 464 kts | 128° |
| 2026-04-25 14:52 | 15.91775 | 68.49656 | 28879 ft | 464 kts | 129° |
| 2026-04-25 14:52 | 15.88824 | 68.54317 | 28888 ft | 464 kts | 129° |
| 2026-04-25 14:53 | 15.84668 | 68.60872 | 28885 ft | 465 kts | 129° |
| 2026-04-25 14:53 | 15.81112 | 68.66479 | 28883 ft | 464 kts | 129° |
| 2026-04-25 14:54 | 15.77555 | 68.72082 | 28880 ft | 464 kts | 129° |
| 2026-04-25 14:54 | 15.74000 | 68.77679 | 28881 ft | 464 kts | 129° |
| 2026-04-25 14:55 | 15.70441 | 68.83277 | 28883 ft | 464 kts | 129° |
| 2026-04-25 14:55 | 15.66908 | 68.88831 | 28884 ft | 464 kts | 129° |
| 2026-04-25 14:56 | 15.63357 | 68.94409 | 28869 ft | 463 kts | 129° |
| 2026-04-25 14:56 | 15.59816 | 68.99967 | 28881 ft | 461 kts | 129° |
| 2026-04-25 14:57 | 15.56267 | 69.05531 | 29139 ft | 464 kts | 129° |
| 2026-04-25 14:57 | 15.54481 | 69.08330 | 29392 ft | 465 kts | 129° |
| 2026-04-25 14:57 | 15.52692 | 69.11131 | 29611 ft | 467 kts | 129° |
| 2026-04-25 14:58 | 15.50893 | 69.13949 | 29860 ft | 469 kts | 130° |
| 2026-04-25 14:58 | 15.49085 | 69.16780 | 30076 ft | 471 kts | 130° |
| 2026-04-25 14:58 | 15.47274 | 69.19615 | 30314 ft | 472 kts | 130° |
| 2026-04-25 14:58 | 15.45461 | 69.22452 | 30579 ft | 472 kts | 130° |
| 2026-04-25 14:59 | 15.43643 | 69.25296 | 30807 ft | 474 kts | 130° |
| 2026-04-25 14:59 | 15.41834 | 69.28122 | 30875 ft | 479 kts | 130° |
| 2026-04-25 14:59 | 15.38095 | 69.33956 | 30879 ft | 493 kts | 130° |
| 2026-04-25 15:00 | 15.34256 | 69.39948 | 30883 ft | 501 kts | 130° |
| 2026-04-25 15:00 | 15.30411 | 69.45959 | 30868 ft | 500 kts | 130° |
| 2026-04-25 15:01 | 15.26555 | 69.51971 | 30863 ft | 500 kts | 130° |
| 2026-04-25 15:01 | 15.22697 | 69.57980 | 30876 ft | 501 kts | 130° |
| 2026-04-25 15:02 | 15.18842 | 69.63982 | 30856 ft | 500 kts | 130° |
| 2026-04-25 15:02 | 15.15010 | 69.69941 | 30872 ft | 500 kts | 130° |
| 2026-04-25 15:03 | 15.11150 | 69.75943 | 30856 ft | 500 kts | 130° |
| 2026-04-25 15:03 | 15.07325 | 69.81966 | 30873 ft | 501 kts | 129° |
| 2026-04-25 15:04 | 15.03516 | 69.87986 | 30870 ft | 499 kts | 129° |
| 2026-04-25 15:04 | 14.99707 | 69.93988 | 30868 ft | 499 kts | 130° |
| 2026-04-25 15:05 | 14.95893 | 69.99988 | 30867 ft | 499 kts | 130° |
| 2026-04-25 15:06 | 14.90172 | 70.08980 | 30870 ft | 499 kts | 130° |
| 2026-04-25 15:06 | 14.86379 | 70.14935 | 30871 ft | 499 kts | 130° |
| 2026-04-25 15:07 | 14.82560 | 70.20927 | 30868 ft | 499 kts | 130° |
| 2026-04-25 15:07 | 14.78739 | 70.26917 | 30874 ft | 499 kts | 130° |
| 2026-04-25 15:08 | 14.74920 | 70.32902 | 30873 ft | 498 kts | 130° |
| 2026-04-25 15:08 | 14.71111 | 70.38866 | 30869 ft | 497 kts | 130° |
| 2026-04-25 15:09 | 14.67299 | 70.44827 | 30872 ft | 497 kts | 130° |
| 2026-04-25 15:09 | 14.61574 | 70.53775 | 30870 ft | 497 kts | 130° |
| 2026-04-25 15:10 | 14.58397 | 70.58735 | 30870 ft | 498 kts | 130° |
| 2026-04-25 15:11 | 14.52661 | 70.67687 | 30871 ft | 498 kts | 130° |
| 2026-04-25 15:11 | 14.48839 | 70.73643 | 30872 ft | 498 kts | 130° |
| 2026-04-25 15:12 | 14.43096 | 70.82588 | 30867 ft | 498 kts | 130° |
| 2026-04-25 15:12 | 14.39910 | 70.87545 | 30866 ft | 498 kts | 130° |
| 2026-04-25 15:13 | 14.33529 | 70.97480 | 30868 ft | 500 kts | 129° |
| 2026-04-25 15:14 | 14.29736 | 71.03500 | 30863 ft | 500 kts | 129° |
| 2026-04-25 15:14 | 14.25944 | 71.09518 | 30865 ft | 500 kts | 129° |
| 2026-04-25 15:15 | 14.22146 | 71.15526 | 30864 ft | 500 kts | 129° |
| 2026-04-25 15:15 | 14.18335 | 71.21547 | 30865 ft | 500 kts | 129° |
| 2026-04-25 15:16 | 14.14537 | 71.27545 | 30867 ft | 499 kts | 129° |
| 2026-04-25 15:16 | 14.08869 | 71.36485 | 30864 ft | 499 kts | 129° |
| 2026-04-25 15:17 | 14.03174 | 71.45459 | 30865 ft | 499 kts | 129° |
| 2026-04-25 15:18 | 13.99375 | 71.51440 | 30865 ft | 499 kts | 129° |
| 2026-04-25 15:18 | 13.93673 | 71.60409 | 30861 ft | 497 kts | 129° |
| 2026-04-25 15:19 | 13.90516 | 71.65371 | 30859 ft | 498 kts | 129° |
| 2026-04-25 15:19 | 13.86081 | 71.72335 | 30857 ft | 498 kts | 129° |
| 2026-04-25 15:20 | 13.82317 | 71.78244 | 30862 ft | 496 kts | 129° |
| 2026-04-25 15:20 | 13.78531 | 71.84181 | 30862 ft | 496 kts | 129° |
| 2026-04-25 15:21 | 13.74741 | 71.90121 | 30862 ft | 497 kts | 129° |
| 2026-04-25 15:21 | 13.70940 | 71.96072 | 30862 ft | 497 kts | 129° |
| 2026-04-25 15:22 | 13.66980 | 72.01859 | 30861 ft | 492 kts | 135° |
| 2026-04-25 15:22 | 13.62642 | 72.07306 | 30860 ft | 492 kts | 134° |
| 2026-04-25 15:23 | 13.58326 | 72.12775 | 30858 ft | 492 kts | 134° |
| 2026-04-25 15:23 | 13.54038 | 72.18204 | 30860 ft | 491 kts | 134° |
| 2026-04-25 15:24 | 13.49736 | 72.23645 | 30860 ft | 490 kts | 134° |
| 2026-04-25 15:24 | 13.46132 | 72.28197 | 30859 ft | 491 kts | 134° |
| 2026-04-25 15:25 | 13.41121 | 72.34524 | 30859 ft | 491 kts | 134° |
| 2026-04-25 15:25 | 13.36807 | 72.39966 | 30859 ft | 491 kts | 134° |
| 2026-04-25 15:26 | 13.32488 | 72.45410 | 30859 ft | 491 kts | 134° |
| 2026-04-25 15:26 | 13.28166 | 72.50856 | 30856 ft | 491 kts | 134° |
| 2026-04-25 15:27 | 13.23850 | 72.56291 | 30856 ft | 491 kts | 134° |
| 2026-04-25 15:28 | 13.17396 | 72.64412 | 30857 ft | 491 kts | 134° |
| 2026-04-25 15:28 | 13.13074 | 72.69847 | 30856 ft | 491 kts | 134° |
| 2026-04-25 15:29 | 13.08756 | 72.75272 | 30858 ft | 491 kts | 134° |
| 2026-04-25 15:29 | 13.04435 | 72.80698 | 30857 ft | 491 kts | 134° |
| 2026-04-25 15:30 | 13.00116 | 72.86119 | 30853 ft | 491 kts | 134° |
| 2026-04-25 15:30 | 12.95790 | 72.91544 | 30856 ft | 491 kts | 134° |
| 2026-04-25 15:31 | 12.91467 | 72.96963 | 30856 ft | 490 kts | 134° |
| 2026-04-25 15:31 | 12.87153 | 73.02369 | 30856 ft | 489 kts | 134° |
| 2026-04-25 15:32 | 12.82843 | 73.07764 | 30855 ft | 489 kts | 134° |
| 2026-04-25 15:32 | 12.78525 | 73.13166 | 30857 ft | 489 kts | 134° |
| 2026-04-25 15:33 | 12.72057 | 73.21253 | 30856 ft | 489 kts | 134° |
| 2026-04-25 15:33 | 12.67769 | 73.26611 | 30857 ft | 489 kts | 134° |
| 2026-04-25 15:34 | 12.63451 | 73.32001 | 30857 ft | 490 kts | 134° |
| 2026-04-25 15:34 | 12.59827 | 73.36524 | 30853 ft | 490 kts | 134° |
| 2026-04-25 15:35 | 12.52646 | 73.45479 | 30856 ft | 490 kts | 134° |
| 2026-04-25 15:36 | 12.46163 | 73.53557 | 30857 ft | 490 kts | 134° |
| 2026-04-25 15:36 | 12.41836 | 73.58944 | 30857 ft | 490 kts | 134° |
| 2026-04-25 15:37 | 12.37513 | 73.64322 | 30856 ft | 489 kts | 134° |
| 2026-04-25 15:37 | 12.33177 | 73.69713 | 30859 ft | 492 kts | 133° |
| 2026-04-25 15:38 | 12.28827 | 73.75120 | 30859 ft | 492 kts | 133° |
| 2026-04-25 15:38 | 12.24485 | 73.80513 | 30856 ft | 490 kts | 133° |
| 2026-04-25 15:39 | 12.20188 | 73.85849 | 30855 ft | 490 kts | 133° |
| 2026-04-25 15:39 | 12.15856 | 73.91222 | 30856 ft | 490 kts | 133° |
| 2026-04-25 15:40 | 12.12957 | 73.94817 | 30859 ft | 490 kts | 133° |
| 2026-04-25 15:40 | 12.07190 | 74.01963 | 30859 ft | 490 kts | 132° |
| 2026-04-25 15:41 | 12.02846 | 74.07344 | 30859 ft | 491 kts | 133° |
| 2026-04-25 15:41 | 11.98505 | 74.12719 | 30862 ft | 491 kts | 133° |
| 2026-04-25 15:42 | 11.94159 | 74.18096 | 30862 ft | 491 kts | 132° |
| 2026-04-25 15:42 | 11.89809 | 74.23476 | 30861 ft | 491 kts | 132° |
| 2026-04-25 15:43 | 11.85457 | 74.28854 | 30865 ft | 491 kts | 132° |
| 2026-04-25 15:43 | 11.81107 | 74.34227 | 30865 ft | 491 kts | 132° |
| 2026-04-25 15:44 | 11.76746 | 74.39610 | 30865 ft | 492 kts | 133° |
| 2026-04-25 15:44 | 11.72417 | 74.44952 | 30867 ft | 492 kts | 133° |
| 2026-04-25 15:45 | 11.68056 | 74.50329 | 30869 ft | 492 kts | 133° |
| 2026-04-25 15:45 | 11.65137 | 74.53927 | 30869 ft | 492 kts | 133° |
| 2026-04-25 15:46 | 11.59327 | 74.61085 | 30871 ft | 493 kts | 133° |
| 2026-04-25 15:46 | 11.54956 | 74.66466 | 30871 ft | 493 kts | 133° |
| 2026-04-25 15:47 | 11.50579 | 74.71852 | 30873 ft | 493 kts | 133° |
| 2026-04-25 15:47 | 11.46205 | 74.77231 | 30875 ft | 493 kts | 133° |
| 2026-04-25 15:48 | 11.41827 | 74.82613 | 30876 ft | 493 kts | 133° |
| 2026-04-25 15:48 | 11.37453 | 74.87989 | 30875 ft | 493 kts | 133° |
| 2026-04-25 15:49 | 11.33075 | 74.93364 | 30882 ft | 493 kts | 133° |
| 2026-04-25 15:49 | 11.28694 | 74.98738 | 30881 ft | 493 kts | 133° |
| 2026-04-25 15:50 | 11.24340 | 75.04078 | 30878 ft | 493 kts | 133° |
| 2026-04-25 15:50 | 11.19962 | 75.09446 | 30877 ft | 493 kts | 133° |
| 2026-04-25 15:51 | 11.17029 | 75.13039 | 30879 ft | 493 kts | 133° |
| 2026-04-25 15:51 | 11.11198 | 75.20181 | 30878 ft | 493 kts | 133° |
| 2026-04-25 15:52 | 11.06816 | 75.25545 | 30873 ft | 493 kts | 133° |
| 2026-04-25 15:52 | 11.02426 | 75.30915 | 30871 ft | 493 kts | 133° |
| 2026-04-25 15:53 | 10.98042 | 75.36276 | 30874 ft | 493 kts | 133° |
| 2026-04-25 15:53 | 10.93687 | 75.41598 | 30875 ft | 492 kts | 133° |
| 2026-04-25 15:54 | 10.89312 | 75.46941 | 30881 ft | 492 kts | 133° |
| 2026-04-25 15:54 | 10.84926 | 75.52297 | 30876 ft | 492 kts | 133° |
| 2026-04-25 15:55 | 10.80546 | 75.57640 | 30884 ft | 492 kts | 133° |
| 2026-04-25 15:55 | 10.76162 | 75.62988 | 30879 ft | 492 kts | 133° |
| 2026-04-25 15:56 | 10.71778 | 75.68333 | 30882 ft | 492 kts | 133° |
| 2026-04-25 15:56 | 10.67394 | 75.73674 | 30884 ft | 492 kts | 133° |
| 2026-04-25 15:57 | 10.63031 | 75.78987 | 30881 ft | 492 kts | 133° |
| 2026-04-25 15:57 | 10.58610 | 75.84366 | 30882 ft | 497 kts | 133° |
| 2026-04-25 15:58 | 10.54178 | 75.89758 | 30884 ft | 497 kts | 133° |
| 2026-04-25 15:58 | 10.49743 | 75.95152 | 30878 ft | 497 kts | 133° |
| 2026-04-25 15:59 | 10.45310 | 76.00540 | 30881 ft | 497 kts | 133° |
| 2026-04-25 15:59 | 10.40881 | 76.05921 | 30887 ft | 497 kts | 133° |
| 2026-04-25 16:00 | 10.37946 | 76.09485 | 30878 ft | 497 kts | 133° |
| 2026-04-25 16:00 | 10.32041 | 76.16651 | 30880 ft | 496 kts | 132° |
| 2026-04-25 16:01 | 10.27611 | 76.22026 | 30877 ft | 496 kts | 132° |
| 2026-04-25 16:01 | 10.23192 | 76.27384 | 30879 ft | 494 kts | 132° |
| 2026-04-25 16:02 | 10.19500 | 76.31859 | 30886 ft | 494 kts | 132° |
| 2026-04-25 16:02 | 10.15116 | 76.37171 | 30885 ft | 494 kts | 132° |
| 2026-04-25 16:03 | 10.10689 | 76.42509 | 30882 ft | 494 kts | 132° |
| 2026-04-25 16:03 | 10.06256 | 76.47838 | 30881 ft | 494 kts | 132° |
| 2026-04-25 16:04 | 10.01822 | 76.53171 | 30883 ft | 493 kts | 132° |
| 2026-04-25 16:04 | 9.97399 | 76.58488 | 30877 ft | 493 kts | 132° |
| 2026-04-25 16:05 | 9.92973 | 76.63808 | 30878 ft | 493 kts | 132° |
| 2026-04-25 16:06 | 9.86374 | 76.71736 | 30893 ft | 489 kts | 132° |
| 2026-04-25 16:06 | 9.81976 | 76.77015 | 30892 ft | 490 kts | 133° |
| 2026-04-25 16:07 | 9.77603 | 76.82262 | 30919 ft | 490 kts | 132° |
| 2026-04-25 16:07 | 9.73204 | 76.87538 | 30912 ft | 489 kts | 132° |
| 2026-04-25 16:08 | 9.68809 | 76.92808 | 30910 ft | 490 kts | 132° |
| 2026-04-25 16:08 | 9.64409 | 76.98082 | 30928 ft | 490 kts | 132° |
| 2026-04-25 16:09 | 9.59997 | 77.03367 | 30927 ft | 490 kts | 132° |
| 2026-04-25 16:09 | 9.55597 | 77.08634 | 30934 ft | 490 kts | 132° |
| 2026-04-25 16:10 | 9.51191 | 77.13906 | 30936 ft | 490 kts | 133° |
| 2026-04-25 16:10 | 9.46788 | 77.19174 | 30936 ft | 490 kts | 133° |
| 2026-04-25 16:11 | 9.42376 | 77.24451 | 30930 ft | 489 kts | 133° |
| 2026-04-25 16:11 | 9.38008 | 77.29671 | 30930 ft | 489 kts | 133° |
| 2026-04-25 16:12 | 9.33610 | 77.34925 | 30924 ft | 489 kts | 133° |
| 2026-04-25 16:12 | 9.29205 | 77.40186 | 30909 ft | 488 kts | 133° |
| 2026-04-25 16:13 | 9.24803 | 77.45440 | 30908 ft | 489 kts | 133° |
| 2026-04-25 16:13 | 9.20404 | 77.50689 | 30905 ft | 490 kts | 133° |
| 2026-04-25 16:14 | 9.15992 | 77.55951 | 30884 ft | 489 kts | 133° |
| 2026-04-25 16:14 | 9.11589 | 77.61198 | 30889 ft | 489 kts | 132° |
| 2026-04-25 16:15 | 9.07215 | 77.66412 | 30905 ft | 489 kts | 132° |
| 2026-04-25 16:15 | 9.02786 | 77.71686 | 30902 ft | 489 kts | 132° |
| 2026-04-25 16:16 | 8.98410 | 77.76896 | 30889 ft | 489 kts | 132° |
| 2026-04-25 16:16 | 8.94009 | 77.82135 | 30897 ft | 489 kts | 132° |
| 2026-04-25 16:17 | 8.89602 | 77.87377 | 30881 ft | 489 kts | 132° |
| 2026-04-25 16:17 | 8.85188 | 77.92625 | 30877 ft | 490 kts | 132° |
| 2026-04-25 16:18 | 8.80770 | 77.97877 | 30890 ft | 490 kts | 132° |
| 2026-04-25 16:18 | 8.76354 | 78.03125 | 30893 ft | 490 kts | 132° |
| 2026-04-25 16:19 | 8.71936 | 78.08372 | 30894 ft | 490 kts | 132° |
| 2026-04-25 16:19 | 8.67520 | 78.13616 | 30875 ft | 490 kts | 132° |
| 2026-04-25 16:20 | 8.60909 | 78.21460 | 30876 ft | 490 kts | 132° |
| 2026-04-25 16:21 | 8.54281 | 78.29321 | 30883 ft | 490 kts | 132° |
| 2026-04-25 16:21 | 8.49867 | 78.34554 | 30904 ft | 489 kts | 132° |
| 2026-04-25 16:22 | 8.45455 | 78.39782 | 30904 ft | 489 kts | 132° |
| 2026-04-25 16:22 | 8.41041 | 78.45009 | 30905 ft | 489 kts | 132° |
| 2026-04-25 16:23 | 8.36655 | 78.50203 | 30891 ft | 489 kts | 132° |
| 2026-04-25 16:23 | 8.32238 | 78.55430 | 30884 ft | 489 kts | 132° |
| 2026-04-25 16:24 | 8.27824 | 78.60651 | 30882 ft | 489 kts | 133° |
| 2026-04-25 16:24 | 8.23293 | 78.65770 | 30885 ft | 489 kts | 134° |
| 2026-04-25 16:25 | 8.18730 | 78.70857 | 30900 ft | 488 kts | 134° |
| 2026-04-25 16:25 | 8.14196 | 78.75945 | 30912 ft | 486 kts | 133° |
| 2026-04-25 16:26 | 8.09673 | 78.81029 | 30915 ft | 487 kts | 133° |
| 2026-04-25 16:26 | 8.05146 | 78.86118 | 30909 ft | 487 kts | 133° |
| 2026-04-25 16:27 | 8.00648 | 78.91171 | 30896 ft | 487 kts | 133° |
| 2026-04-25 16:27 | 7.96120 | 78.96255 | 30897 ft | 487 kts | 133° |
| 2026-04-25 16:28 | 7.91588 | 79.01343 | 30900 ft | 487 kts | 133° |
| 2026-04-25 16:28 | 7.87060 | 79.06424 | 30903 ft | 487 kts | 133° |
| 2026-04-25 16:29 | 7.82530 | 79.11506 | 30906 ft | 487 kts | 133° |
| 2026-04-25 16:29 | 7.78002 | 79.16584 | 30898 ft | 487 kts | 133° |
| 2026-04-25 16:30 | 7.73474 | 79.21659 | 30903 ft | 487 kts | 133° |
| 2026-04-25 16:30 | 7.68949 | 79.26747 | 30895 ft | 487 kts | 133° |
| 2026-04-25 16:31 | 7.64468 | 79.31865 | 30890 ft | 487 kts | 133° |
| 2026-04-25 16:31 | 7.59975 | 79.36993 | 30892 ft | 487 kts | 133° |
| 2026-04-25 16:32 | 7.55487 | 79.42105 | 30913 ft | 487 kts | 133° |
| 2026-04-25 16:32 | 7.50993 | 79.47219 | 30910 ft | 487 kts | 133° |
| 2026-04-25 16:33 | 7.46533 | 79.52292 | 30880 ft | 487 kts | 132° |
| 2026-04-25 16:33 | 7.42021 | 79.57423 | 30882 ft | 489 kts | 133° |
| 2026-04-25 16:34 | 7.37508 | 79.62555 | 30897 ft | 489 kts | 133° |
| 2026-04-25 16:34 | 7.32994 | 79.67686 | 30903 ft | 489 kts | 133° |
| 2026-04-25 16:35 | 7.28481 | 79.72813 | 30896 ft | 489 kts | 133° |
| 2026-04-25 16:35 | 7.23966 | 79.77942 | 30890 ft | 489 kts | 133° |
| 2026-04-25 16:36 | 7.19440 | 79.83080 | 30875 ft | 491 kts | 132° |
| 2026-04-25 16:36 | 7.14811 | 79.88136 | 30871 ft | 490 kts | 137° |
| 2026-04-25 16:37 | 7.09854 | 79.92861 | 30869 ft | 491 kts | 137° |
| 2026-04-25 16:37 | 7.04914 | 79.97612 | 30879 ft | 491 kts | 137° |
| 2026-04-25 16:38 | 7.00008 | 80.02327 | 30897 ft | 491 kts | 137° |
| 2026-04-25 16:38 | 6.95066 | 80.07072 | 30900 ft | 491 kts | 137° |
| 2026-04-25 16:39 | 6.90125 | 80.11815 | 30899 ft | 491 kts | 137° |
| 2026-04-25 16:39 | 6.85180 | 80.16559 | 30906 ft | 491 kts | 137° |
| 2026-04-25 16:40 | 6.81869 | 80.19736 | 30914 ft | 492 kts | 137° |
| 2026-04-25 16:40 | 6.75271 | 80.26063 | 30898 ft | 492 kts | 137° |
| 2026-04-25 16:41 | 6.70322 | 80.30807 | 30899 ft | 491 kts | 137° |
| 2026-04-25 16:41 | 6.62909 | 80.37910 | 30937 ft | 491 kts | 137° |
| 2026-04-25 16:42 | 6.57957 | 80.42654 | 30934 ft | 491 kts | 137° |
| 2026-04-25 16:42 | 6.53011 | 80.47390 | 30926 ft | 491 kts | 137° |
| 2026-04-25 16:43 | 6.48087 | 80.52105 | 30925 ft | 492 kts | 137° |
| 2026-04-25 16:43 | 6.43134 | 80.56845 | 30939 ft | 492 kts | 136° |
| 2026-04-25 16:44 | 6.37934 | 80.61308 | 30946 ft | 492 kts | 143° |
| 2026-04-25 16:44 | 6.32518 | 80.65497 | 30942 ft | 491 kts | 142° |
| 2026-04-25 16:45 | 6.27118 | 80.69699 | 30919 ft | 491 kts | 142° |
| 2026-04-25 16:45 | 6.21715 | 80.73898 | 30916 ft | 491 kts | 142° |
| 2026-04-25 16:46 | 6.16308 | 80.78098 | 30912 ft | 491 kts | 142° |
| 2026-04-25 16:46 | 6.12731 | 80.80875 | 30911 ft | 491 kts | 142° |
| 2026-04-25 16:47 | 6.05529 | 80.86465 | 30925 ft | 491 kts | 142° |
| 2026-04-25 16:47 | 6.00358 | 80.90955 | 30928 ft | 491 kts | 139° |
| 2026-04-25 16:48 | 5.95217 | 80.95465 | 30927 ft | 490 kts | 139° |
| 2026-04-25 16:48 | 5.90072 | 80.99975 | 30922 ft | 490 kts | 139° |
| 2026-04-25 16:49 | 5.84923 | 81.04490 | 30901 ft | 490 kts | 139° |
| 2026-04-25 16:49 | 5.79785 | 81.08993 | 30900 ft | 491 kts | 139° |
| 2026-04-25 16:50 | 5.74644 | 81.13500 | 30919 ft | 491 kts | 139° |
| 2026-04-25 16:50 | 5.69532 | 81.17979 | 30922 ft | 491 kts | 139° |
| 2026-04-25 16:51 | 5.64390 | 81.22483 | 30927 ft | 491 kts | 139° |
| 2026-04-25 16:51 | 5.60951 | 81.25495 | 30924 ft | 490 kts | 139° |
| 2026-04-25 16:52 | 5.54123 | 81.31473 | 30902 ft | 490 kts | 139° |
| 2026-04-25 16:52 | 5.49850 | 81.35214 | 30905 ft | 490 kts | 139° |
| 2026-04-25 16:53 | 5.42146 | 81.41957 | 30923 ft | 490 kts | 139° |
| 2026-04-25 16:54 | 5.37010 | 81.46450 | 30921 ft | 490 kts | 139° |
| 2026-04-25 16:54 | 5.31871 | 81.50945 | 30905 ft | 490 kts | 139° |
| 2026-04-25 16:55 | 5.26738 | 81.55433 | 30910 ft | 490 kts | 139° |
| 2026-04-25 16:55 | 5.21606 | 81.59920 | 30906 ft | 489 kts | 139° |
| 2026-04-25 16:56 | 5.16470 | 81.64409 | 30911 ft | 489 kts | 139° |
| 2026-04-25 16:56 | 5.11334 | 81.68897 | 30906 ft | 490 kts | 138° |
| 2026-04-25 16:57 | 5.06221 | 81.73364 | 30903 ft | 490 kts | 139° |
| 2026-04-25 16:57 | 5.01078 | 81.77857 | 30924 ft | 490 kts | 139° |
| 2026-04-25 16:58 | 4.95933 | 81.82351 | 30901 ft | 490 kts | 139° |
| 2026-04-25 16:58 | 4.90788 | 81.86843 | 30907 ft | 490 kts | 139° |
| 2026-04-25 16:59 | 4.85645 | 81.91332 | 30908 ft | 490 kts | 138° |
| 2026-04-25 16:59 | 4.80506 | 81.95818 | 30907 ft | 490 kts | 138° |
| 2026-04-25 17:00 | 4.75370 | 82.00299 | 30915 ft | 490 kts | 138° |
| 2026-04-25 17:00 | 4.70230 | 82.04782 | 30927 ft | 489 kts | 138° |
| 2026-04-25 17:01 | 4.65095 | 82.09261 | 30927 ft | 490 kts | 138° |
| 2026-04-25 17:01 | 4.59949 | 82.13748 | 30909 ft | 490 kts | 138° |
| 2026-04-25 17:02 | 4.54837 | 82.18205 | 30904 ft | 490 kts | 138° |
| 2026-04-25 17:02 | 4.49695 | 82.22688 | 30910 ft | 490 kts | 138° |
| 2026-04-25 17:03 | 4.44553 | 82.27168 | 30907 ft | 490 kts | 138° |
| 2026-04-25 17:03 | 4.39405 | 82.31655 | 30909 ft | 490 kts | 138° |
| 2026-04-25 17:04 | 4.34263 | 82.36134 | 30906 ft | 490 kts | 138° |
| 2026-04-25 17:04 | 4.29116 | 82.40617 | 30908 ft | 491 kts | 138° |
| 2026-04-25 17:05 | 4.23963 | 82.45105 | 30907 ft | 490 kts | 138° |
| 2026-04-25 17:05 | 4.16277 | 82.51798 | 30904 ft | 490 kts | 138° |
| 2026-04-25 17:06 | 4.11120 | 82.56286 | 30916 ft | 490 kts | 138° |
| 2026-04-25 17:06 | 4.05970 | 82.60769 | 30906 ft | 490 kts | 138° |
| 2026-04-25 17:07 | 4.00820 | 82.65250 | 30917 ft | 490 kts | 138° |
| 2026-04-25 17:07 | 3.95664 | 82.69735 | 30907 ft | 490 kts | 138° |
| 2026-04-25 17:08 | 3.90515 | 82.74214 | 30907 ft | 490 kts | 138° |
| 2026-04-25 17:08 | 3.85400 | 82.78663 | 30911 ft | 491 kts | 138° |
| 2026-04-25 17:09 | 3.80237 | 82.83153 | 30909 ft | 491 kts | 138° |
| 2026-04-25 17:09 | 3.75077 | 82.87639 | 30904 ft | 491 kts | 138° |
| 2026-04-25 17:10 | 3.69919 | 82.92122 | 30904 ft | 491 kts | 138° |
| 2026-04-25 17:10 | 3.64759 | 82.96608 | 30904 ft | 491 kts | 138° |
| 2026-04-25 17:11 | 3.59603 | 83.01089 | 30907 ft | 491 kts | 138° |
| 2026-04-25 17:11 | 3.54391 | 83.05526 | 30910 ft | 491 kts | 139° |
| 2026-04-25 17:12 | 3.49128 | 83.09894 | 30905 ft | 491 kts | 139° |
| 2026-04-25 17:12 | 3.43879 | 83.14272 | 30904 ft | 491 kts | 139° |
| 2026-04-25 17:13 | 3.39516 | 83.17920 | 30906 ft | 492 kts | 139° |
| 2026-04-25 17:13 | 3.33374 | 83.23057 | 30911 ft | 492 kts | 139° |
| 2026-04-25 17:14 | 3.28153 | 83.27423 | 30909 ft | 492 kts | 139° |
| 2026-04-25 17:14 | 3.22894 | 83.31819 | 30904 ft | 492 kts | 139° |
| 2026-04-25 17:15 | 3.17634 | 83.36216 | 30901 ft | 492 kts | 139° |
| 2026-04-25 17:15 | 3.12379 | 83.40608 | 30902 ft | 492 kts | 139° |
| 2026-04-25 17:16 | 3.07123 | 83.45000 | 30902 ft | 492 kts | 139° |
| 2026-04-25 17:16 | 3.01866 | 83.49393 | 30903 ft | 492 kts | 139° |
| 2026-04-25 17:17 | 2.96645 | 83.53755 | 30899 ft | 493 kts | 139° |
| 2026-04-25 17:17 | 2.91384 | 83.58149 | 30901 ft | 492 kts | 139° |
| 2026-04-25 17:18 | 2.86128 | 83.62539 | 30907 ft | 492 kts | 139° |
| 2026-04-25 17:18 | 2.80868 | 83.66933 | 30902 ft | 492 kts | 139° |
| 2026-04-25 17:19 | 2.75615 | 83.71319 | 30904 ft | 492 kts | 139° |
| 2026-04-25 17:19 | 2.70354 | 83.75711 | 30903 ft | 492 kts | 139° |
| 2026-04-25 17:20 | 2.65096 | 83.80100 | 30899 ft | 492 kts | 139° |
| 2026-04-25 17:20 | 2.59834 | 83.84493 | 30900 ft | 493 kts | 139° |
| 2026-04-25 17:21 | 2.54562 | 83.88893 | 30899 ft | 493 kts | 139° |
| 2026-04-25 17:21 | 2.49300 | 83.93285 | 30899 ft | 493 kts | 139° |
| 2026-04-25 17:22 | 2.44919 | 83.96941 | 30902 ft | 493 kts | 139° |
| 2026-04-25 17:22 | 2.38792 | 84.02054 | 30904 ft | 493 kts | 139° |
| 2026-04-25 17:23 | 2.33524 | 84.06448 | 30906 ft | 493 kts | 139° |
| 2026-04-25 17:23 | 2.28255 | 84.10843 | 30899 ft | 493 kts | 139° |
| 2026-04-25 17:24 | 2.22990 | 84.15235 | 30901 ft | 493 kts | 139° |
| 2026-04-25 17:24 | 2.17726 | 84.19626 | 30902 ft | 493 kts | 139° |
| 2026-04-25 17:25 | 2.12459 | 84.24018 | 30899 ft | 493 kts | 139° |
| 2026-04-25 17:25 | 2.07188 | 84.28413 | 30900 ft | 493 kts | 139° |
| 2026-04-25 17:26 | 2.01906 | 84.32818 | 30896 ft | 494 kts | 139° |
| 2026-04-25 17:26 | 1.96659 | 84.37193 | 30896 ft | 494 kts | 139° |
| 2026-04-25 17:27 | 1.91376 | 84.41597 | 30896 ft | 494 kts | 139° |
| 2026-04-25 17:27 | 1.87838 | 84.44546 | 30899 ft | 494 kts | 139° |
| 2026-04-25 17:28 | 1.80802 | 84.50411 | 30899 ft | 495 kts | 139° |
| 2026-04-25 17:28 | 1.75513 | 84.54819 | 30899 ft | 494 kts | 139° |
| 2026-04-25 17:29 | 1.70229 | 84.59223 | 30896 ft | 495 kts | 139° |
| 2026-04-25 17:29 | 1.64946 | 84.63626 | 30898 ft | 495 kts | 139° |
| 2026-04-25 17:30 | 1.59694 | 84.68003 | 30897 ft | 495 kts | 139° |
| 2026-04-25 17:30 | 1.54404 | 84.72410 | 30896 ft | 495 kts | 139° |
| 2026-04-25 17:31 | 1.49107 | 84.76824 | 30893 ft | 495 kts | 139° |
| 2026-04-25 17:31 | 1.43821 | 84.81227 | 30896 ft | 495 kts | 139° |
| 2026-04-25 17:32 | 1.38528 | 84.85636 | 30894 ft | 495 kts | 139° |
| 2026-04-25 17:32 | 1.33237 | 84.90044 | 30894 ft | 495 kts | 139° |
| 2026-04-25 17:33 | 1.27945 | 84.94452 | 30896 ft | 495 kts | 139° |
| 2026-04-25 17:33 | 1.22654 | 84.98859 | 30896 ft | 495 kts | 139° |
| 2026-04-25 17:34 | 1.17367 | 85.03263 | 30896 ft | 495 kts | 139° |
| 2026-04-25 17:34 | 1.12106 | 85.07644 | 30896 ft | 495 kts | 139° |
| 2026-04-25 17:35 | 1.06817 | 85.12049 | 30896 ft | 495 kts | 139° |
| 2026-04-25 17:35 | 1.01593 | 85.16537 | 30894 ft | 494 kts | 136° |
| 2026-04-25 17:36 | 0.96539 | 85.21208 | 30894 ft | 495 kts | 136° |
| 2026-04-25 17:36 | 0.91470 | 85.25853 | 30894 ft | 494 kts | 136° |
| 2026-04-25 17:37 | 0.86384 | 85.30477 | 30895 ft | 495 kts | 136° |
| 2026-04-25 17:37 | 0.81323 | 85.35072 | 30897 ft | 495 kts | 136° |
| 2026-04-25 17:38 | 0.77921 | 85.38161 | 30891 ft | 495 kts | 136° |
| 2026-04-25 17:38 | 0.71139 | 85.44321 | 30892 ft | 495 kts | 137° |
| 2026-04-25 17:39 | 0.66046 | 85.48945 | 30896 ft | 495 kts | 137° |
| 2026-04-25 17:39 | 0.60946 | 85.53576 | 30891 ft | 495 kts | 137° |
| 2026-04-25 17:40 | 0.55848 | 85.58206 | 30894 ft | 495 kts | 137° |
| 2026-04-25 17:40 | 0.50758 | 85.62827 | 30895 ft | 495 kts | 137° |
| 2026-04-25 17:41 | 0.45662 | 85.67454 | 30892 ft | 495 kts | 137° |
| 2026-04-25 17:41 | 0.40568 | 85.72079 | 30890 ft | 495 kts | 137° |
| 2026-04-25 17:42 | 0.35471 | 85.76706 | 30890 ft | 495 kts | 137° |
| 2026-04-25 17:42 | 0.30379 | 85.81329 | 30887 ft | 495 kts | 137° |
| 2026-04-25 17:43 | 0.26140 | 85.85178 | 30889 ft | 495 kts | 137° |
| 2026-04-25 17:43 | 0.21050 | 85.89800 | 30890 ft | 495 kts | 137° |
| 2026-04-25 17:44 | 0.15950 | 85.94429 | 30893 ft | 495 kts | 137° |
| 2026-04-25 17:44 | 0.10853 | 85.99057 | 30892 ft | 495 kts | 137° |
| 2026-04-25 17:45 | 0.06619 | 86.02901 | 30890 ft | 495 kts | 137° |
| 2026-04-25 17:45 | 0.00656 | 86.08315 | 30891 ft | 495 kts | 137° |
| 2026-04-25 17:46 | -0.04402 | 86.12907 | 30887 ft | 494 kts | 137° |
| 2026-04-25 17:46 | -0.09486 | 86.17523 | 30892 ft | 494 kts | 137° |
| 2026-04-25 17:47 | -0.14577 | 86.22145 | 30883 ft | 494 kts | 137° |
| 2026-04-25 17:47 | -0.19667 | 86.26766 | 30883 ft | 494 kts | 137° |
| 2026-04-25 17:48 | -0.27299 | 86.33696 | 30885 ft | 494 kts | 137° |
| 2026-04-25 17:49 | -0.32387 | 86.38309 | 30882 ft | 494 kts | 137° |
| 2026-04-25 17:49 | -0.37531 | 86.42806 | 30885 ft | 494 kts | 138° |
| 2026-04-25 17:50 | -0.42708 | 86.47307 | 30882 ft | 493 kts | 138° |
| 2026-04-25 17:50 | -0.47866 | 86.51813 | 30883 ft | 493 kts | 138° |
| 2026-04-25 17:51 | -0.53028 | 86.56330 | 30882 ft | 493 kts | 138° |
| 2026-04-25 17:51 | -0.58189 | 86.60846 | 30882 ft | 493 kts | 138° |
| 2026-04-25 17:52 | -0.63346 | 86.65358 | 30884 ft | 493 kts | 138° |
| 2026-04-25 17:52 | -0.68508 | 86.69874 | 30886 ft | 493 kts | 138° |
| 2026-04-25 17:53 | -0.73666 | 86.74387 | 30878 ft | 493 kts | 138° |
| 2026-04-25 17:53 | -0.78790 | 86.78870 | 30882 ft | 492 kts | 138° |
| 2026-04-25 17:54 | -0.83933 | 86.83371 | 30882 ft | 491 kts | 138° |
| 2026-04-25 17:54 | -0.89077 | 86.87873 | 30878 ft | 491 kts | 138° |
| 2026-04-25 17:55 | -0.94218 | 86.92372 | 30879 ft | 492 kts | 138° |
| 2026-04-25 17:55 | -0.99367 | 86.96877 | 30882 ft | 492 kts | 137° |
| 2026-04-25 17:56 | -1.04520 | 87.01387 | 30882 ft | 492 kts | 137° |
| 2026-04-25 17:56 | -1.09676 | 87.05900 | 30881 ft | 492 kts | 138° |
| 2026-04-25 17:57 | -1.14822 | 87.10403 | 30877 ft | 492 kts | 137° |
| 2026-04-25 17:57 | -1.19973 | 87.14912 | 30878 ft | 492 kts | 137° |
| 2026-04-25 17:58 | -1.25089 | 87.19390 | 30873 ft | 492 kts | 137° |
| 2026-04-25 17:58 | -1.30237 | 87.23897 | 30873 ft | 492 kts | 137° |
| 2026-04-25 17:59 | -1.35381 | 87.28399 | 30877 ft | 492 kts | 137° |
| 2026-04-25 17:59 | -1.40528 | 87.32905 | 30881 ft | 492 kts | 137° |
| 2026-04-25 18:00 | -1.45682 | 87.37417 | 30881 ft | 492 kts | 137° |
| 2026-04-25 18:00 | -1.50831 | 87.41926 | 30881 ft | 492 kts | 137° |
| 2026-04-25 18:01 | -1.55984 | 87.46437 | 30884 ft | 491 kts | 137° |
| 2026-04-25 18:01 | -1.61123 | 87.50937 | 30878 ft | 491 kts | 137° |
| 2026-04-25 18:02 | -1.66262 | 87.55438 | 30879 ft | 491 kts | 137° |
| 2026-04-25 18:02 | -1.71395 | 87.59933 | 30877 ft | 491 kts | 137° |
| 2026-04-25 18:03 | -1.76535 | 87.64435 | 30879 ft | 491 kts | 137° |
| 2026-04-25 18:03 | -1.81680 | 87.68941 | 30879 ft | 491 kts | 137° |
| 2026-04-25 18:04 | -1.86783 | 87.73412 | 30879 ft | 491 kts | 137° |
| 2026-04-25 18:04 | -1.91926 | 87.77917 | 30877 ft | 491 kts | 137° |
| 2026-04-25 18:05 | -1.97056 | 87.82412 | 30878 ft | 490 kts | 137° |
| 2026-04-25 18:05 | -2.02196 | 87.86900 | 30879 ft | 491 kts | 137° |
| 2026-04-25 18:06 | -2.07397 | 87.91327 | 30879 ft | 491 kts | 138° |
| 2026-04-25 18:06 | -2.12601 | 87.95757 | 30878 ft | 491 kts | 138° |
| 2026-04-25 18:07 | -2.17798 | 88.00193 | 30877 ft | 491 kts | 138° |
| 2026-04-25 18:07 | -2.22987 | 88.04625 | 30875 ft | 491 kts | 138° |
| 2026-04-25 18:08 | -2.28176 | 88.09059 | 30876 ft | 491 kts | 138° |
| 2026-04-25 18:08 | -2.33366 | 88.13494 | 30877 ft | 491 kts | 138° |
| 2026-04-25 18:09 | -2.38518 | 88.17897 | 30876 ft | 490 kts | 138° |
| 2026-04-25 18:09 | -2.43705 | 88.22330 | 30875 ft | 490 kts | 138° |
| 2026-04-25 18:10 | -2.48894 | 88.26765 | 30876 ft | 490 kts | 138° |
| 2026-04-25 18:10 | -2.54078 | 88.31196 | 30876 ft | 490 kts | 138° |
| 2026-04-25 18:11 | -2.59266 | 88.35632 | 30875 ft | 490 kts | 138° |
| 2026-04-25 18:11 | -2.64452 | 88.40066 | 30875 ft | 491 kts | 138° |
| 2026-04-25 18:12 | -2.69641 | 88.44503 | 30881 ft | 491 kts | 138° |
| 2026-04-25 18:12 | -2.74838 | 88.48947 | 30878 ft | 491 kts | 138° |
| 2026-04-25 18:13 | -2.80034 | 88.53391 | 30878 ft | 491 kts | 138° |
| 2026-04-25 18:13 | -2.85192 | 88.57804 | 30878 ft | 491 kts | 138° |
| 2026-04-25 18:14 | -2.92966 | 88.64495 | 30879 ft | 491 kts | 137° |
| 2026-04-25 18:14 | -2.98129 | 88.68966 | 30878 ft | 491 kts | 137° |
| 2026-04-25 18:15 | -3.03301 | 88.73439 | 30878 ft | 491 kts | 137° |
| 2026-04-25 18:15 | -3.08473 | 88.77911 | 30879 ft | 492 kts | 138° |
| 2026-04-25 18:16 | -3.13656 | 88.82391 | 30878 ft | 492 kts | 138° |
| 2026-04-25 18:17 | -3.21430 | 88.89115 | 30879 ft | 493 kts | 138° |
| 2026-04-25 18:17 | -3.26583 | 88.93572 | 30878 ft | 493 kts | 138° |
| 2026-04-25 18:18 | -3.31768 | 88.98057 | 30878 ft | 493 kts | 138° |
| 2026-04-25 18:18 | -3.36958 | 89.02547 | 30878 ft | 493 kts | 138° |
| 2026-04-25 18:19 | -3.42144 | 89.07035 | 30878 ft | 493 kts | 138° |
| 2026-04-25 18:19 | -3.47333 | 89.11526 | 30876 ft | 492 kts | 138° |
| 2026-04-25 18:20 | -3.52512 | 89.16009 | 30877 ft | 492 kts | 138° |
| 2026-04-25 18:20 | -3.57697 | 89.20498 | 30878 ft | 492 kts | 138° |
| 2026-04-25 18:21 | -3.62876 | 89.24983 | 30878 ft | 493 kts | 138° |
| 2026-04-25 18:21 | -3.68067 | 89.29479 | 30879 ft | 493 kts | 138° |
| 2026-04-25 18:22 | -3.73220 | 89.33942 | 30878 ft | 493 kts | 138° |
| 2026-04-25 18:22 | -3.78408 | 89.38435 | 30878 ft | 493 kts | 138° |
| 2026-04-25 18:23 | -3.83599 | 89.42933 | 30878 ft | 493 kts | 138° |
| 2026-04-25 18:23 | -3.88789 | 89.47431 | 30878 ft | 493 kts | 138° |
| 2026-04-25 18:24 | -3.93985 | 89.51935 | 30880 ft | 493 kts | 138° |
| 2026-04-25 18:24 | -3.99174 | 89.56433 | 30878 ft | 493 kts | 138° |
| 2026-04-25 18:25 | -4.04365 | 89.60934 | 30877 ft | 493 kts | 138° |
| 2026-04-25 18:25 | -4.09558 | 89.65437 | 30878 ft | 493 kts | 138° |
| 2026-04-25 18:26 | -4.14747 | 89.69937 | 30881 ft | 493 kts | 138° |
| 2026-04-25 18:26 | -4.19935 | 89.74438 | 30875 ft | 493 kts | 138° |
| 2026-04-25 18:27 | -4.25127 | 89.78943 | 30879 ft | 493 kts | 138° |
| 2026-04-25 18:27 | -4.30313 | 89.83443 | 30878 ft | 493 kts | 138° |
| 2026-04-25 18:28 | -4.35469 | 89.87919 | 30875 ft | 493 kts | 138° |
| 2026-04-25 18:28 | -4.40659 | 89.92424 | 30876 ft | 493 kts | 138° |
| 2026-04-25 18:29 | -4.48434 | 89.99176 | 30879 ft | 493 kts | 138° |
| 2026-04-25 18:30 | -4.58825 | 90.08202 | 30878 ft | 493 kts | 138° |
| 2026-04-25 18:30 | -4.63976 | 90.12678 | 30879 ft | 492 kts | 138° |
| 2026-04-25 18:31 | -4.69150 | 90.17174 | 30878 ft | 492 kts | 138° |
| 2026-04-25 18:31 | -4.74332 | 90.21679 | 30878 ft | 493 kts | 138° |
| 2026-04-25 18:32 | -4.78634 | 90.25419 | 30878 ft | 492 kts | 138° |
| 2026-04-25 18:32 | -4.83810 | 90.29919 | 30878 ft | 492 kts | 138° |
| 2026-04-25 18:33 | -4.88986 | 90.34422 | 30878 ft | 492 kts | 138° |
| 2026-04-25 18:33 | -4.94163 | 90.38927 | 30880 ft | 493 kts | 138° |
| 2026-04-25 18:34 | -4.99351 | 90.43440 | 30878 ft | 494 kts | 138° |
| 2026-04-25 18:34 | -5.04536 | 90.47953 | 30881 ft | 494 kts | 138° |
| 2026-04-25 18:35 | -5.09722 | 90.52467 | 30878 ft | 494 kts | 138° |
| 2026-04-25 18:35 | -5.14910 | 90.56984 | 30878 ft | 494 kts | 138° |
| 2026-04-25 18:36 | -5.20097 | 90.61501 | 30884 ft | 493 kts | 138° |
| 2026-04-25 18:36 | -5.25248 | 90.65988 | 30883 ft | 493 kts | 138° |
| 2026-04-25 18:37 | -5.30430 | 90.70503 | 30881 ft | 493 kts | 138° |
| 2026-04-25 18:37 | -5.35616 | 90.75029 | 30882 ft | 493 kts | 138° |
| 2026-04-25 18:38 | -5.40756 | 90.79575 | 30885 ft | 493 kts | 137° |
| 2026-04-25 18:38 | -5.45902 | 90.84127 | 30883 ft | 493 kts | 137° |
| 2026-04-25 18:39 | -5.51061 | 90.88684 | 30878 ft | 493 kts | 138° |
| 2026-04-25 18:39 | -5.56212 | 90.93234 | 30885 ft | 493 kts | 138° |
| 2026-04-25 18:40 | -5.61367 | 90.97790 | 30886 ft | 493 kts | 138° |
| 2026-04-25 18:40 | -5.66515 | 91.02340 | 30885 ft | 493 kts | 137° |
| 2026-04-25 18:41 | -5.71670 | 91.06897 | 30879 ft | 493 kts | 137° |
| 2026-04-25 18:41 | -5.76818 | 91.11450 | 30882 ft | 493 kts | 137° |
| 2026-04-25 18:42 | -5.81101 | 91.15239 | 30885 ft | 494 kts | 137° |
| 2026-04-25 18:42 | -5.87097 | 91.20544 | 30882 ft | 494 kts | 137° |
| 2026-04-25 18:43 | -5.92287 | 91.25136 | 30882 ft | 494 kts | 137° |
| 2026-04-25 18:43 | -5.97412 | 91.29673 | 30881 ft | 494 kts | 137° |
| 2026-04-25 18:44 | -6.02571 | 91.34242 | 30880 ft | 494 kts | 137° |
| 2026-04-25 18:44 | -6.07730 | 91.38811 | 30882 ft | 494 kts | 137° |
| 2026-04-25 18:45 | -6.12881 | 91.43375 | 30885 ft | 493 kts | 137° |
| 2026-04-25 18:45 | -6.18022 | 91.47929 | 30888 ft | 493 kts | 137° |
| 2026-04-25 18:46 | -6.23163 | 91.52486 | 30883 ft | 493 kts | 137° |
| 2026-04-25 18:46 | -6.28313 | 91.57053 | 30885 ft | 494 kts | 137° |
| 2026-04-25 18:47 | -6.33467 | 91.61624 | 30884 ft | 494 kts | 137° |
| 2026-04-25 18:47 | -6.38622 | 91.66197 | 30885 ft | 494 kts | 137° |
| 2026-04-25 18:48 | -6.43770 | 91.70765 | 30882 ft | 494 kts | 137° |
| 2026-04-25 18:48 | -6.48928 | 91.75344 | 30882 ft | 493 kts | 138° |
| 2026-04-25 18:49 | -6.54038 | 91.79881 | 30887 ft | 493 kts | 138° |
| 2026-04-25 18:49 | -6.59179 | 91.84447 | 30883 ft | 493 kts | 138° |
| 2026-04-25 18:50 | -6.64322 | 91.89016 | 30887 ft | 493 kts | 138° |
| 2026-04-25 18:50 | -6.69473 | 91.93593 | 30885 ft | 494 kts | 138° |
| 2026-04-25 18:51 | -6.73757 | 91.97402 | 30885 ft | 495 kts | 138° |
| 2026-04-25 18:51 | -6.79782 | 92.02759 | 30887 ft | 494 kts | 138° |
| 2026-04-25 18:52 | -6.84935 | 92.07343 | 30881 ft | 494 kts | 138° |
| 2026-04-25 18:52 | -6.90067 | 92.11908 | 30885 ft | 492 kts | 138° |
| 2026-04-25 18:53 | -6.95192 | 92.16469 | 30883 ft | 492 kts | 138° |
| 2026-04-25 18:53 | -7.00326 | 92.21041 | 30887 ft | 492 kts | 138° |
| 2026-04-25 18:54 | -7.08017 | 92.27889 | 30883 ft | 492 kts | 138° |
| 2026-04-25 18:55 | -7.13164 | 92.32475 | 30889 ft | 495 kts | 138° |
| 2026-04-25 18:55 | -7.18324 | 92.37073 | 30887 ft | 496 kts | 138° |
| 2026-04-25 18:56 | -7.23489 | 92.41678 | 30888 ft | 495 kts | 138° |
| 2026-04-25 18:56 | -7.28612 | 92.46247 | 30887 ft | 495 kts | 138° |
| 2026-04-25 18:57 | -7.33778 | 92.50855 | 30881 ft | 496 kts | 138° |
| 2026-04-25 18:57 | -7.38942 | 92.55463 | 30882 ft | 496 kts | 138° |
| 2026-04-25 18:58 | -7.44108 | 92.60074 | 30885 ft | 496 kts | 138° |
| 2026-04-25 18:58 | -7.51849 | 92.66988 | 30882 ft | 495 kts | 138° |
| 2026-04-25 18:59 | -7.62153 | 92.76194 | 30884 ft | 496 kts | 138° |
| 2026-04-25 19:00 | -7.69883 | 92.83105 | 30886 ft | 495 kts | 138° |
| 2026-04-25 19:01 | -7.77620 | 92.90026 | 30884 ft | 496 kts | 138° |
| 2026-04-25 19:01 | -7.82779 | 92.94642 | 30885 ft | 496 kts | 138° |
| 2026-04-25 19:02 | -7.90520 | 93.01572 | 30888 ft | 496 kts | 138° |
| 2026-04-25 19:03 | -7.96514 | 93.06942 | 30883 ft | 497 kts | 139° |
| 2026-04-25 19:03 | -8.03403 | 93.13115 | 30886 ft | 497 kts | 139° |
| 2026-04-25 19:04 | -8.11152 | 93.20062 | 30884 ft | 497 kts | 139° |
| 2026-04-25 19:05 | -8.21480 | 93.29326 | 30883 ft | 497 kts | 139° |
| 2026-04-25 19:06 | -8.26651 | 93.33968 | 30882 ft | 498 kts | 139° |
| 2026-04-25 19:06 | -8.34417 | 93.40943 | 30879 ft | 499 kts | 139° |
| 2026-04-25 19:07 | -8.42217 | 93.47950 | 30882 ft | 500 kts | 139° |
| 2026-04-25 19:08 | -8.49984 | 93.54932 | 30881 ft | 500 kts | 139° |
| 2026-04-25 19:09 | -8.58657 | 93.62734 | 30882 ft | 500 kts | 139° |
| 2026-04-25 19:10 | -8.68181 | 93.71307 | 30877 ft | 500 kts | 139° |
| 2026-04-25 19:10 | -8.73378 | 93.75988 | 30878 ft | 501 kts | 139° |
| 2026-04-25 19:11 | -8.78581 | 93.80675 | 30882 ft | 501 kts | 139° |
| 2026-04-25 19:11 | -8.83803 | 93.85382 | 30877 ft | 503 kts | 139° |
| 2026-04-25 19:12 | -8.89030 | 93.90094 | 30881 ft | 503 kts | 139° |
| 2026-04-25 19:12 | -8.94252 | 93.94803 | 30884 ft | 503 kts | 139° |
| 2026-04-25 19:13 | -8.99475 | 93.99517 | 30884 ft | 503 kts | 139° |
| 2026-04-25 19:13 | -9.04446 | 94.04435 | 30881 ft | 503 kts | 136° |
| 2026-04-25 19:14 | -9.09440 | 94.09404 | 30880 ft | 503 kts | 137° |
| 2026-04-25 19:14 | -9.14428 | 94.14368 | 30880 ft | 503 kts | 137° |
| 2026-04-25 19:15 | -9.19415 | 94.19339 | 30881 ft | 503 kts | 136° |
| 2026-04-25 19:15 | -9.24415 | 94.24327 | 30880 ft | 505 kts | 136° |
| 2026-04-25 19:16 | -9.29414 | 94.29316 | 30881 ft | 505 kts | 136° |
| 2026-04-25 19:16 | -9.34415 | 94.34309 | 30882 ft | 505 kts | 136° |
| 2026-04-25 19:17 | -9.39413 | 94.39302 | 30877 ft | 505 kts | 136° |
| 2026-04-25 19:17 | -9.44410 | 94.44295 | 30881 ft | 505 kts | 137° |
| 2026-04-25 19:18 | -9.49419 | 94.49302 | 30876 ft | 506 kts | 137° |
| 2026-04-25 19:18 | -9.54396 | 94.54279 | 30878 ft | 506 kts | 137° |
| 2026-04-25 19:19 | -9.59399 | 94.59285 | 30877 ft | 507 kts | 136° |
| 2026-04-25 19:19 | -9.64422 | 94.64314 | 30878 ft | 507 kts | 136° |
| 2026-04-25 19:20 | -9.69445 | 94.69344 | 30878 ft | 507 kts | 136° |
| 2026-04-25 19:20 | -9.74471 | 94.74380 | 30878 ft | 507 kts | 136° |
| 2026-04-25 19:21 | -9.78644 | 94.78563 | 30881 ft | 507 kts | 136° |
| 2026-04-25 19:21 | -9.87005 | 94.86947 | 30881 ft | 509 kts | 137° |
| 2026-04-25 19:22 | -9.91221 | 94.91177 | 30878 ft | 509 kts | 137° |
| 2026-04-25 19:23 | -9.98742 | 94.98727 | 30880 ft | 510 kts | 137° |
| 2026-04-25 19:23 | -10.06098 | 95.06555 | 30879 ft | 511 kts | 134° |
| 2026-04-25 19:24 | -10.10904 | 95.11873 | 30878 ft | 511 kts | 134° |
| 2026-04-25 19:25 | -10.20581 | 95.22453 | 30878 ft | 511 kts | 135° |
| 2026-04-25 19:25 | -10.25421 | 95.27738 | 30879 ft | 511 kts | 135° |
| 2026-04-25 19:26 | -10.30259 | 95.33027 | 30878 ft | 511 kts | 135° |
| 2026-04-25 19:26 | -10.35080 | 95.38299 | 30878 ft | 513 kts | 134° |
| 2026-04-25 19:27 | -10.39125 | 95.42726 | 30878 ft | 513 kts | 134° |
| 2026-04-25 19:27 | -10.44803 | 95.48941 | 30878 ft | 513 kts | 134° |
| 2026-04-25 19:28 | -10.49661 | 95.54263 | 30876 ft | 513 kts | 134° |
| 2026-04-25 19:28 | -10.54514 | 95.59581 | 30880 ft | 514 kts | 135° |
| 2026-04-25 19:29 | -10.59378 | 95.64913 | 30875 ft | 514 kts | 135° |
| 2026-04-25 19:29 | -10.64233 | 95.70240 | 30875 ft | 514 kts | 135° |
| 2026-04-25 19:30 | -10.69072 | 95.75550 | 30878 ft | 516 kts | 135° |
| 2026-04-25 19:30 | -10.73949 | 95.80905 | 30879 ft | 516 kts | 135° |
| 2026-04-25 19:31 | -10.78825 | 95.86263 | 30879 ft | 516 kts | 135° |
| 2026-04-25 19:31 | -10.83702 | 95.91623 | 30879 ft | 516 kts | 135° |
| 2026-04-25 19:32 | -10.88576 | 95.96983 | 30877 ft | 516 kts | 135° |
| 2026-04-25 19:32 | -10.92626 | 96.01440 | 30878 ft | 516 kts | 135° |
| 2026-04-25 19:33 | -10.98285 | 96.07669 | 30878 ft | 516 kts | 135° |
| 2026-04-25 19:33 | -11.03163 | 96.13041 | 30877 ft | 517 kts | 134° |
| 2026-04-25 19:34 | -11.08051 | 96.18429 | 30879 ft | 517 kts | 134° |
| 2026-04-25 19:34 | -11.12935 | 96.23814 | 30878 ft | 517 kts | 134° |
| 2026-04-25 19:35 | -11.17814 | 96.29197 | 30876 ft | 517 kts | 134° |
| 2026-04-25 19:35 | -11.22660 | 96.34546 | 30876 ft | 517 kts | 134° |
| 2026-04-25 19:36 | -11.27559 | 96.39956 | 30878 ft | 519 kts | 135° |
| 2026-04-25 19:36 | -11.32452 | 96.45363 | 30878 ft | 519 kts | 135° |
| 2026-04-25 19:37 | -11.37357 | 96.50786 | 30879 ft | 520 kts | 135° |
| 2026-04-25 19:37 | -11.42266 | 96.56216 | 30878 ft | 520 kts | 134° |
| 2026-04-25 19:38 | -11.47166 | 96.61639 | 30882 ft | 520 kts | 134° |
| 2026-04-25 19:38 | -11.52070 | 96.67070 | 30880 ft | 520 kts | 134° |
| 2026-04-25 19:39 | -11.56941 | 96.72467 | 30881 ft | 520 kts | 134° |
| 2026-04-25 19:39 | -11.61840 | 96.77898 | 30881 ft | 521 kts | 135° |
| 2026-04-25 19:40 | -11.66750 | 96.83344 | 30878 ft | 522 kts | 135° |
| 2026-04-25 19:40 | -11.71670 | 96.88805 | 30881 ft | 523 kts | 135° |
| 2026-04-25 19:41 | -11.76593 | 96.94272 | 30881 ft | 523 kts | 135° |
| 2026-04-25 19:41 | -11.79850 | 96.97892 | 30881 ft | 523 kts | 135° |
| 2026-04-25 19:42 | -11.86429 | 97.05205 | 30881 ft | 523 kts | 135° |
| 2026-04-25 19:42 | -11.91346 | 97.10675 | 30881 ft | 523 kts | 135° |
| 2026-04-25 19:43 | -11.96233 | 97.16115 | 30885 ft | 523 kts | 135° |
| 2026-04-25 19:43 | -12.01160 | 97.21601 | 30881 ft | 524 kts | 135° |
| 2026-04-25 19:44 | -12.06088 | 97.27093 | 30881 ft | 524 kts | 135° |
| 2026-04-25 19:44 | -12.11015 | 97.32587 | 30884 ft | 524 kts | 135° |
| 2026-04-25 19:45 | -12.15941 | 97.38082 | 30884 ft | 524 kts | 135° |
| 2026-04-25 19:45 | -12.20865 | 97.43580 | 30884 ft | 524 kts | 135° |
| 2026-04-25 19:46 | -12.25789 | 97.49080 | 30883 ft | 524 kts | 135° |
| 2026-04-25 19:46 | -12.30707 | 97.54576 | 30891 ft | 524 kts | 135° |
| 2026-04-25 19:47 | -12.35643 | 97.60096 | 30878 ft | 527 kts | 135° |
| 2026-04-25 19:47 | -12.40591 | 97.65633 | 30885 ft | 527 kts | 135° |
| 2026-04-25 19:48 | -12.45538 | 97.71173 | 30885 ft | 527 kts | 135° |
| 2026-04-25 19:48 | -12.50450 | 97.76676 | 30881 ft | 527 kts | 135° |
| 2026-04-25 19:49 | -12.53759 | 97.80384 | 30882 ft | 527 kts | 135° |
| 2026-04-25 19:49 | -12.60333 | 97.87758 | 30887 ft | 527 kts | 135° |
| 2026-04-25 19:50 | -12.67742 | 97.96076 | 30885 ft | 529 kts | 135° |
| 2026-04-25 19:51 | -12.72709 | 98.01656 | 30884 ft | 530 kts | 135° |
| 2026-04-25 19:51 | -12.77678 | 98.07242 | 30881 ft | 530 kts | 135° |
| 2026-04-25 19:52 | -12.82651 | 98.12836 | 30881 ft | 530 kts | 135° |
| 2026-04-25 19:52 | -12.87613 | 98.18421 | 30881 ft | 530 kts | 135° |
| 2026-04-25 19:53 | -12.92544 | 98.23974 | 30879 ft | 530 kts | 135° |
| 2026-04-25 19:53 | -12.97505 | 98.29566 | 30881 ft | 530 kts | 135° |
| 2026-04-25 19:54 | -13.02470 | 98.35164 | 30881 ft | 532 kts | 135° |
| 2026-04-25 19:54 | -13.07455 | 98.40790 | 30883 ft | 533 kts | 135° |
| 2026-04-25 19:55 | -13.11601 | 98.45472 | 30880 ft | 532 kts | 135° |
| 2026-04-25 19:55 | -13.17419 | 98.52046 | 30881 ft | 533 kts | 135° |
| 2026-04-25 19:56 | -13.22397 | 98.57674 | 30881 ft | 533 kts | 135° |
| 2026-04-25 19:56 | -13.27372 | 98.63303 | 30878 ft | 532 kts | 135° |
| 2026-04-25 19:57 | -13.32320 | 98.68905 | 30878 ft | 532 kts | 135° |
| 2026-04-25 19:57 | -13.37299 | 98.74545 | 30880 ft | 534 kts | 135° |
| 2026-04-25 19:58 | -13.42295 | 98.80208 | 30878 ft | 535 kts | 135° |
| 2026-04-25 19:58 | -13.47288 | 98.85872 | 30878 ft | 534 kts | 135° |
| 2026-04-25 19:59 | -13.52276 | 98.91532 | 30877 ft | 534 kts | 135° |
| 2026-04-25 19:59 | -13.57263 | 98.97194 | 30879 ft | 534 kts | 135° |
| 2026-04-25 20:00 | -13.62033 | 99.03072 | 30880 ft | 536 kts | 132° |
| 2026-04-25 20:00 | -13.66768 | 99.08919 | 30882 ft | 536 kts | 133° |
| 2026-04-25 20:01 | -13.73934 | 99.17781 | 30878 ft | 538 kts | 132° |
| 2026-04-25 20:01 | -13.78706 | 99.23695 | 30878 ft | 537 kts | 132° |
| 2026-04-25 20:02 | -13.83481 | 99.29618 | 30879 ft | 537 kts | 132° |
| 2026-04-25 20:02 | -13.88251 | 99.35539 | 30878 ft | 537 kts | 132° |
| 2026-04-25 20:03 | -13.93023 | 99.41467 | 30879 ft | 537 kts | 132° |
| 2026-04-25 20:03 | -13.97795 | 99.47401 | 30877 ft | 537 kts | 132° |
| 2026-04-25 20:04 | -14.02562 | 99.53333 | 30879 ft | 538 kts | 132° |
| 2026-04-25 20:04 | -14.07345 | 99.59289 | 30879 ft | 541 kts | 132° |
| 2026-04-25 20:05 | -14.12114 | 99.65233 | 30878 ft | 541 kts | 132° |
| 2026-04-25 20:05 | -14.16908 | 99.71212 | 30879 ft | 541 kts | 132° |
| 2026-04-25 20:06 | -14.21701 | 99.77193 | 30879 ft | 541 kts | 132° |
| 2026-04-25 20:06 | -14.26489 | 99.83173 | 30878 ft | 541 kts | 132° |
| 2026-04-25 20:07 | -14.31268 | 99.89147 | 30875 ft | 540 kts | 132° |
| 2026-04-25 20:07 | -14.36042 | 99.95118 | 30876 ft | 540 kts | 132° |
| 2026-04-25 20:08 | -14.40819 | 100.01097 | 30879 ft | 540 kts | 132° |
| 2026-04-25 20:08 | -14.45594 | 100.07079 | 30879 ft | 540 kts | 132° |
| 2026-04-25 20:09 | -14.50337 | 100.13025 | 30879 ft | 540 kts | 132° |
| 2026-04-25 20:09 | -14.55107 | 100.19010 | 30876 ft | 540 kts | 132° |
| 2026-04-25 20:10 | -14.59869 | 100.24989 | 30879 ft | 539 kts | 132° |
| 2026-04-25 20:10 | -14.64632 | 100.30973 | 30879 ft | 539 kts | 132° |
| 2026-04-25 20:11 | -14.69388 | 100.36953 | 30889 ft | 539 kts | 132° |
| 2026-04-25 20:11 | -14.74175 | 100.42975 | 30882 ft | 543 kts | 132° |
| 2026-04-25 20:12 | -14.78962 | 100.49004 | 30882 ft | 542 kts | 132° |
| 2026-04-25 20:12 | -14.82130 | 100.52996 | 30864 ft | 542 kts | 132° |
| 2026-04-25 20:13 | -14.87716 | 100.60040 | 30885 ft | 541 kts | 132° |
| 2026-04-25 20:13 | -14.92488 | 100.66062 | 30884 ft | 541 kts | 132° |
| 2026-04-25 20:14 | -14.98026 | 100.73057 | 30887 ft | 541 kts | 132° |
| 2026-04-25 20:14 | -15.02790 | 100.79080 | 30887 ft | 541 kts | 132° |
| 2026-04-25 20:15 | -15.06796 | 100.84147 | 30881 ft | 544 kts | 132° |
| 2026-04-25 20:15 | -15.11550 | 100.90166 | 30880 ft | 544 kts | 132° |
| 2026-04-25 20:16 | -15.16336 | 100.96230 | 30900 ft | 543 kts | 132° |
| 2026-04-25 20:16 | -15.21118 | 101.02293 | 30900 ft | 543 kts | 132° |
| 2026-04-25 20:17 | -15.25894 | 101.08354 | 30886 ft | 544 kts | 132° |
| 2026-04-25 20:17 | -15.30679 | 101.14430 | 30884 ft | 544 kts | 132° |
| 2026-04-25 20:18 | -15.35458 | 101.20505 | 30882 ft | 544 kts | 132° |
| 2026-04-25 20:18 | -15.40238 | 101.26585 | 30888 ft | 544 kts | 132° |
| 2026-04-25 20:19 | -15.44990 | 101.32634 | 30885 ft | 545 kts | 132° |
| 2026-04-25 20:19 | -15.49777 | 101.38733 | 30893 ft | 545 kts | 131° |
| 2026-04-25 20:20 | -15.54562 | 101.44835 | 30891 ft | 545 kts | 131° |
| 2026-04-25 20:20 | -15.59343 | 101.50937 | 30891 ft | 545 kts | 131° |
| 2026-04-25 20:21 | -15.64119 | 101.57036 | 30892 ft | 545 kts | 131° |
| 2026-04-25 20:21 | -15.68895 | 101.63141 | 30909 ft | 545 kts | 131° |
| 2026-04-25 20:22 | -15.72863 | 101.68218 | 30887 ft | 545 kts | 131° |
| 2026-04-25 20:22 | -15.78450 | 101.75370 | 30897 ft | 545 kts | 131° |
| 2026-04-25 20:23 | -15.83228 | 101.81493 | 30899 ft | 545 kts | 131° |
| 2026-04-25 20:23 | -15.87997 | 101.87609 | 30895 ft | 545 kts | 131° |
| 2026-04-25 20:24 | -15.92737 | 101.93693 | 30897 ft | 545 kts | 131° |
| 2026-04-25 20:24 | -15.97511 | 101.99826 | 30897 ft | 545 kts | 131° |
| 2026-04-25 20:25 | -16.02273 | 102.05949 | 30896 ft | 545 kts | 131° |
| 2026-04-25 20:25 | -16.07042 | 102.12085 | 30900 ft | 545 kts | 131° |
| 2026-04-25 20:26 | -16.11802 | 102.18216 | 30897 ft | 545 kts | 131° |
| 2026-04-25 20:26 | -16.16562 | 102.24352 | 30897 ft | 545 kts | 131° |
| 2026-04-25 20:27 | -16.21324 | 102.30495 | 30897 ft | 545 kts | 131° |
| 2026-04-25 20:27 | -16.26080 | 102.36635 | 30900 ft | 545 kts | 131° |
| 2026-04-25 20:28 | -16.30805 | 102.42741 | 30898 ft | 545 kts | 131° |
| 2026-04-25 20:28 | -16.35591 | 102.48932 | 30903 ft | 546 kts | 131° |
| 2026-04-25 20:29 | -16.40323 | 102.55057 | 30904 ft | 546 kts | 131° |
| 2026-04-25 20:29 | -16.45085 | 102.61227 | 30904 ft | 546 kts | 131° |
| 2026-04-25 20:30 | -16.49839 | 102.67393 | 30906 ft | 546 kts | 131° |
| 2026-04-25 20:30 | -16.54600 | 102.73572 | 30905 ft | 546 kts | 131° |
| 2026-04-25 20:31 | -16.59361 | 102.79757 | 30906 ft | 546 kts | 131° |
| 2026-04-25 20:31 | -16.64118 | 102.85940 | 30906 ft | 547 kts | 131° |
| 2026-04-25 20:32 | -16.68850 | 102.92097 | 30907 ft | 548 kts | 131° |
| 2026-04-25 20:32 | -16.73625 | 102.98317 | 30909 ft | 549 kts | 131° |
| 2026-04-25 20:33 | -16.78391 | 103.04531 | 30911 ft | 548 kts | 131° |
| 2026-04-25 20:33 | -16.82352 | 103.09698 | 30911 ft | 548 kts | 131° |
| 2026-04-25 20:34 | -16.87919 | 103.16968 | 30908 ft | 548 kts | 131° |
| 2026-04-25 20:34 | -16.92681 | 103.23191 | 30909 ft | 548 kts | 131° |
| 2026-04-25 20:35 | -16.97443 | 103.29422 | 30915 ft | 550 kts | 130° |
| 2026-04-25 20:35 | -17.02222 | 103.35680 | 30906 ft | 551 kts | 130° |
| 2026-04-25 20:36 | -17.06995 | 103.41935 | 30904 ft | 550 kts | 130° |
| 2026-04-25 20:36 | -17.11766 | 103.48194 | 30907 ft | 550 kts | 130° |
| 2026-04-25 20:37 | -17.16538 | 103.54461 | 30908 ft | 550 kts | 130° |
| 2026-04-25 20:37 | -17.21267 | 103.60676 | 30910 ft | 550 kts | 130° |
| 2026-04-25 20:38 | -17.26036 | 103.66950 | 30910 ft | 550 kts | 130° |
| 2026-04-25 20:38 | -17.30806 | 103.73230 | 30916 ft | 552 kts | 130° |
| 2026-04-25 20:39 | -17.35583 | 103.79527 | 30910 ft | 552 kts | 130° |
| 2026-04-25 20:39 | -17.39549 | 103.84757 | 30913 ft | 552 kts | 130° |
| 2026-04-25 20:40 | -17.45116 | 103.92108 | 30910 ft | 550 kts | 130° |
| 2026-04-25 20:40 | -17.49865 | 103.98384 | 30913 ft | 550 kts | 130° |
| 2026-04-25 20:41 | -17.54611 | 104.04662 | 30908 ft | 550 kts | 130° |
| 2026-04-25 20:41 | -17.59361 | 104.10952 | 30908 ft | 550 kts | 130° |
| 2026-04-25 20:42 | -17.64071 | 104.17194 | 30911 ft | 550 kts | 130° |
| 2026-04-25 20:42 | -17.68814 | 104.23488 | 30911 ft | 549 kts | 130° |
| 2026-04-25 20:43 | -17.73530 | 104.29750 | 30913 ft | 547 kts | 130° |
| 2026-04-25 20:43 | -17.78246 | 104.36018 | 30916 ft | 547 kts | 130° |
| 2026-04-25 20:44 | -17.82964 | 104.42295 | 30916 ft | 547 kts | 130° |
| 2026-04-25 20:44 | -17.87680 | 104.48575 | 30924 ft | 547 kts | 130° |
| 2026-04-25 20:45 | -17.92411 | 104.54879 | 30922 ft | 551 kts | 130° |
| 2026-04-25 20:45 | -17.97148 | 104.61201 | 30920 ft | 550 kts | 130° |
| 2026-04-25 20:46 | -18.01880 | 104.67521 | 30924 ft | 550 kts | 130° |
| 2026-04-25 20:46 | -18.06609 | 104.73843 | 30923 ft | 550 kts | 129° |
| 2026-04-25 20:47 | -18.11340 | 104.80173 | 30919 ft | 550 kts | 129° |
| 2026-04-25 20:47 | -18.16043 | 104.86473 | 30917 ft | 550 kts | 129° |
| 2026-04-25 20:48 | -18.20771 | 104.92811 | 30930 ft | 552 kts | 129° |
| 2026-04-25 20:48 | -18.25493 | 104.99150 | 30924 ft | 550 kts | 129° |
| 2026-04-25 20:49 | -18.30213 | 105.05491 | 30927 ft | 550 kts | 129° |
| 2026-04-25 20:49 | -18.34936 | 105.11842 | 30927 ft | 551 kts | 129° |
| 2026-04-25 20:50 | -18.39656 | 105.18195 | 30927 ft | 550 kts | 129° |
| 2026-04-25 20:50 | -18.44372 | 105.24549 | 30926 ft | 550 kts | 129° |
| 2026-04-25 20:51 | -18.49053 | 105.30863 | 30951 ft | 550 kts | 129° |
| 2026-04-25 20:51 | -18.53802 | 105.37273 | 30929 ft | 553 kts | 129° |
| 2026-04-25 20:52 | -18.57731 | 105.42583 | 30930 ft | 553 kts | 129° |
| 2026-04-25 20:52 | -18.63222 | 105.50011 | 30931 ft | 553 kts | 129° |
| 2026-04-25 20:53 | -18.67947 | 105.56409 | 30933 ft | 553 kts | 129° |
| 2026-04-25 20:53 | -18.72670 | 105.62812 | 30933 ft | 553 kts | 129° |
| 2026-04-25 20:54 | -18.77379 | 105.69201 | 30933 ft | 550 kts | 129° |
| 2026-04-25 20:54 | -18.82090 | 105.75595 | 30938 ft | 554 kts | 128° |
| 2026-04-25 20:55 | -18.86823 | 105.82027 | 30938 ft | 554 kts | 128° |
| 2026-04-25 20:55 | -18.91547 | 105.88452 | 30939 ft | 554 kts | 128° |
| 2026-04-25 20:56 | -18.96269 | 105.94881 | 30939 ft | 554 kts | 128° |
| 2026-04-25 20:56 | -19.00934 | 106.01358 | 30936 ft | 553 kts | 124° |
| 2026-04-25 20:57 | -19.05369 | 106.07921 | 30938 ft | 551 kts | 126° |
| 2026-04-25 20:57 | -19.09884 | 106.14487 | 30939 ft | 554 kts | 126° |
| 2026-04-25 20:58 | -19.14403 | 106.21100 | 30941 ft | 555 kts | 126° |
| 2026-04-25 20:58 | -19.18918 | 106.27730 | 30941 ft | 555 kts | 126° |
| 2026-04-25 20:59 | -19.23423 | 106.34355 | 30944 ft | 555 kts | 126° |
| 2026-04-25 20:59 | -19.27883 | 106.40921 | 30944 ft | 550 kts | 126° |
| 2026-04-25 21:00 | -19.30868 | 106.45319 | 30947 ft | 550 kts | 126° |
| 2026-04-25 21:01 | -19.39048 | 106.57389 | 30948 ft | 553 kts | 126° |
| 2026-04-25 21:01 | -19.43538 | 106.64024 | 30949 ft | 554 kts | 126° |
| 2026-04-25 21:02 | -19.48027 | 106.70666 | 30938 ft | 554 kts | 126° |
| 2026-04-25 21:02 | -19.52494 | 106.77281 | 30950 ft | 550 kts | 126° |
| 2026-04-25 21:03 | -19.56917 | 106.83837 | 30953 ft | 551 kts | 126° |
| 2026-04-25 21:03 | -19.61371 | 106.90448 | 30952 ft | 551 kts | 125° |
| 2026-04-25 21:04 | -19.65827 | 106.97069 | 30964 ft | 552 kts | 125° |
| 2026-04-25 21:04 | -19.70299 | 107.03721 | 30952 ft | 555 kts | 125° |
| 2026-04-25 21:05 | -19.74767 | 107.10375 | 30955 ft | 551 kts | 125° |
| 2026-04-25 21:05 | -19.79210 | 107.16998 | 30958 ft | 551 kts | 125° |
| 2026-04-25 21:06 | -19.82908 | 107.22516 | 30958 ft | 551 kts | 125° |
| 2026-04-25 21:06 | -19.87353 | 107.29154 | 30958 ft | 551 kts | 125° |
| 2026-04-25 21:07 | -19.91797 | 107.35801 | 30961 ft | 551 kts | 125° |
| 2026-04-25 21:07 | -19.96241 | 107.42455 | 30959 ft | 552 kts | 125° |
| 2026-04-25 21:08 | -20.00672 | 107.49096 | 30963 ft | 550 kts | 125° |
| 2026-04-25 21:08 | -20.05096 | 107.55734 | 30963 ft | 550 kts | 125° |
| 2026-04-25 21:09 | -20.11698 | 107.65655 | 30971 ft | 550 kts | 125° |
| 2026-04-25 21:09 | -20.16119 | 107.72307 | 30972 ft | 550 kts | 125° |
| 2026-04-25 21:10 | -20.20530 | 107.78951 | 30972 ft | 548 kts | 125° |
| 2026-04-25 21:10 | -20.24940 | 107.85602 | 30971 ft | 551 kts | 125° |
| 2026-04-25 21:11 | -20.29362 | 107.92278 | 30974 ft | 551 kts | 125° |
| 2026-04-25 21:11 | -20.33776 | 107.98950 | 30979 ft | 551 kts | 125° |
| 2026-04-25 21:12 | -20.38194 | 108.05635 | 30980 ft | 551 kts | 125° |
| 2026-04-25 21:12 | -20.41857 | 108.11184 | 30979 ft | 551 kts | 125° |
| 2026-04-25 21:13 | -20.47011 | 108.19001 | 30982 ft | 551 kts | 125° |
| 2026-04-25 21:13 | -20.51417 | 108.25692 | 30982 ft | 551 kts | 125° |
| 2026-04-25 21:14 | -20.55822 | 108.32389 | 30987 ft | 551 kts | 125° |
| 2026-04-25 21:14 | -20.60195 | 108.39044 | 30988 ft | 551 kts | 125° |
| 2026-04-25 21:15 | -20.64592 | 108.45746 | 30989 ft | 549 kts | 125° |
| 2026-04-25 21:15 | -20.68965 | 108.52416 | 30990 ft | 548 kts | 125° |
| 2026-04-25 21:16 | -20.73340 | 108.59098 | 30990 ft | 549 kts | 125° |
| 2026-04-25 21:16 | -20.77717 | 108.65791 | 30993 ft | 550 kts | 125° |
| 2026-04-25 21:17 | -20.82101 | 108.72502 | 30990 ft | 550 kts | 125° |
| 2026-04-25 21:17 | -20.86475 | 108.79208 | 30984 ft | 549 kts | 125° |
| 2026-04-25 21:18 | -20.90805 | 108.85851 | 30999 ft | 548 kts | 125° |
| 2026-04-25 21:18 | -20.95160 | 108.92540 | 30999 ft | 548 kts | 125° |
| 2026-04-25 21:19 | -20.99510 | 108.99236 | 30998 ft | 548 kts | 124° |
| 2026-04-25 21:19 | -21.03338 | 109.06283 | 31010 ft | 549 kts | 119° |
| 2026-04-25 21:20 | -21.06521 | 109.12239 | 30996 ft | 550 kts | 120° |
| 2026-04-25 21:20 | -21.10928 | 109.20477 | 31004 ft | 548 kts | 120° |
| 2026-04-25 21:21 | -21.14706 | 109.27563 | 31005 ft | 548 kts | 120° |
| 2026-04-25 21:21 | -21.18482 | 109.34660 | 31010 ft | 548 kts | 120° |
| 2026-04-25 21:22 | -21.22246 | 109.41749 | 31009 ft | 548 kts | 120° |
| 2026-04-25 21:22 | -21.26011 | 109.48850 | 31009 ft | 547 kts | 120° |
| 2026-04-25 21:23 | -21.29766 | 109.55939 | 31010 ft | 546 kts | 120° |
| 2026-04-25 21:23 | -21.33521 | 109.63038 | 31010 ft | 547 kts | 120° |
| 2026-04-25 21:24 | -21.37244 | 109.70086 | 31007 ft | 547 kts | 120° |
| 2026-04-25 21:24 | -21.40993 | 109.77192 | 31010 ft | 547 kts | 119° |
| 2026-04-25 21:25 | -21.44738 | 109.84300 | 31006 ft | 546 kts | 120° |
| 2026-04-25 21:25 | -21.48473 | 109.91399 | 31007 ft | 546 kts | 120° |
| 2026-04-25 21:26 | -21.52203 | 109.98498 | 31007 ft | 546 kts | 120° |
| 2026-04-25 21:26 | -21.55929 | 110.05597 | 31006 ft | 544 kts | 119° |
| 2026-04-25 21:27 | -21.59640 | 110.12678 | 31001 ft | 544 kts | 119° |
| 2026-04-25 21:27 | -21.63356 | 110.19777 | 31001 ft | 545 kts | 119° |
| 2026-04-25 21:28 | -21.67070 | 110.26883 | 31001 ft | 545 kts | 119° |
| 2026-04-25 21:28 | -21.70779 | 110.33988 | 30996 ft | 545 kts | 119° |
| 2026-04-25 21:29 | -21.74464 | 110.41058 | 30996 ft | 545 kts | 119° |
| 2026-04-25 21:29 | -21.78167 | 110.48171 | 30977 ft | 545 kts | 119° |
| 2026-04-25 21:30 | -21.81861 | 110.55276 | 30996 ft | 543 kts | 119° |
| 2026-04-25 21:30 | -21.84939 | 110.61204 | 30993 ft | 543 kts | 119° |
| 2026-04-25 21:31 | -21.89224 | 110.69465 | 30993 ft | 543 kts | 119° |
| 2026-04-25 21:31 | -21.92900 | 110.76563 | 30988 ft | 543 kts | 119° |
| 2026-04-25 21:32 | -21.96579 | 110.83677 | 30988 ft | 544 kts | 119° |
| 2026-04-25 21:32 | -22.00258 | 110.90801 | 30988 ft | 544 kts | 119° |
| 2026-04-25 21:33 | -22.03937 | 110.97935 | 30992 ft | 543 kts | 118° |
| 2026-04-25 21:33 | -22.07596 | 111.05038 | 30985 ft | 541 kts | 118° |
| 2026-04-25 21:34 | -22.11245 | 111.12132 | 30985 ft | 541 kts | 118° |
| 2026-04-25 21:34 | -22.14903 | 111.19256 | 30980 ft | 544 kts | 119° |
| 2026-04-25 21:35 | -22.18567 | 111.26397 | 30982 ft | 544 kts | 119° |
| 2026-04-25 21:35 | -22.22230 | 111.33549 | 30979 ft | 544 kts | 118° |
| 2026-04-25 21:36 | -22.25866 | 111.40658 | 30979 ft | 544 kts | 118° |
| 2026-04-25 21:36 | -22.29518 | 111.47805 | 30979 ft | 544 kts | 118° |
| 2026-04-25 21:37 | -22.32577 | 111.53801 | 30979 ft | 543 kts | 118° |
| 2026-04-25 21:37 | -22.36813 | 111.62115 | 30979 ft | 543 kts | 118° |
| 2026-04-25 21:38 | -22.40455 | 111.69275 | 30979 ft | 543 kts | 118° |
| 2026-04-25 21:38 | -22.44091 | 111.76433 | 30979 ft | 543 kts | 118° |
| 2026-04-25 21:39 | -22.47730 | 111.83606 | 30977 ft | 544 kts | 118° |
| 2026-04-25 21:39 | -22.51369 | 111.90789 | 30991 ft | 545 kts | 118° |
| 2026-04-25 21:40 | -22.54990 | 111.97946 | 30978 ft | 546 kts | 118° |
| 2026-04-25 21:40 | -22.58635 | 112.05162 | 30977 ft | 546 kts | 118° |
| 2026-04-25 21:41 | -22.62272 | 112.12372 | 30977 ft | 546 kts | 118° |
| 2026-04-25 21:41 | -22.65906 | 112.19585 | 30973 ft | 545 kts | 118° |
| 2026-04-25 21:42 | -22.69530 | 112.26791 | 30974 ft | 545 kts | 118° |
| 2026-04-25 21:42 | -22.73153 | 112.34002 | 30974 ft | 545 kts | 118° |
| 2026-04-25 21:43 | -22.76781 | 112.41236 | 30974 ft | 547 kts | 118° |
| 2026-04-25 21:43 | -22.80409 | 112.48477 | 30971 ft | 546 kts | 118° |
| 2026-04-25 21:44 | -22.84023 | 112.55703 | 30972 ft | 545 kts | 118° |
| 2026-04-25 21:45 | -22.89439 | 112.66551 | 30971 ft | 545 kts | 118° |
| 2026-04-25 21:45 | -22.93024 | 112.73744 | 30965 ft | 545 kts | 118° |
| 2026-04-25 21:46 | -22.96626 | 112.80982 | 30973 ft | 544 kts | 118° |
| 2026-04-25 21:46 | -23.00214 | 112.88201 | 30969 ft | 543 kts | 118° |
| 2026-04-25 21:47 | -23.03798 | 112.95426 | 30963 ft | 544 kts | 118° |
| 2026-04-25 21:47 | -23.07380 | 113.02654 | 30969 ft | 543 kts | 118° |
| 2026-04-25 21:48 | -23.10959 | 113.09887 | 30964 ft | 543 kts | 118° |
| 2026-04-25 21:48 | -23.14529 | 113.17112 | 30959 ft | 542 kts | 118° |
| 2026-04-25 21:49 | -23.18092 | 113.24334 | 30961 ft | 542 kts | 118° |
| 2026-04-25 21:49 | -23.21654 | 113.31565 | 30961 ft | 543 kts | 118° |
| 2026-04-25 21:50 | -23.25198 | 113.38769 | 30960 ft | 544 kts | 118° |
| 2026-04-25 21:50 | -23.28757 | 113.46016 | 30967 ft | 543 kts | 118° |
| 2026-04-25 21:51 | -23.32313 | 113.53266 | 30964 ft | 543 kts | 118° |
| 2026-04-25 21:51 | -23.35866 | 113.60520 | 30966 ft | 543 kts | 118° |
| 2026-04-25 21:52 | -23.39419 | 113.67783 | 30968 ft | 543 kts | 118° |
| 2026-04-25 21:52 | -23.42947 | 113.75005 | 30970 ft | 543 kts | 118° |
| 2026-04-25 21:53 | -23.46495 | 113.82273 | 30970 ft | 544 kts | 118° |
| 2026-04-25 21:53 | -23.50145 | 113.89488 | 30971 ft | 543 kts | 124° |
| 2026-04-25 21:54 | -23.54821 | 113.95933 | 30967 ft | 542 kts | 130° |
| 2026-04-25 21:54 | -23.59594 | 114.02307 | 30973 ft | 542 kts | 130° |
| 2026-04-25 21:55 | -23.64359 | 114.08687 | 30966 ft | 542 kts | 130° |
| 2026-04-25 21:55 | -23.69114 | 114.15060 | 30963 ft | 543 kts | 130° |
| 2026-04-25 21:56 | -23.73882 | 114.21457 | 30973 ft | 544 kts | 130° |
| 2026-04-25 21:56 | -23.78620 | 114.27824 | 30972 ft | 543 kts | 130° |
| 2026-04-25 21:57 | -23.83376 | 114.34223 | 30975 ft | 543 kts | 130° |
| 2026-04-25 21:57 | -23.87368 | 114.39602 | 30972 ft | 543 kts | 130° |
| 2026-04-25 21:58 | -23.92887 | 114.47046 | 30979 ft | 542 kts | 131° |
| 2026-04-25 21:58 | -23.96825 | 114.52365 | 30971 ft | 542 kts | 131° |
| 2026-04-25 21:59 | -24.01566 | 114.58775 | 30981 ft | 542 kts | 131° |
| 2026-04-25 21:59 | -24.06307 | 114.65194 | 30989 ft | 542 kts | 131° |
| 2026-04-25 22:00 | -24.13410 | 114.74827 | 30991 ft | 542 kts | 131° |
| 2026-04-25 22:00 | -24.18136 | 114.81247 | 30986 ft | 540 kts | 131° |
| 2026-04-25 22:01 | -24.22852 | 114.87661 | 31002 ft | 540 kts | 131° |
| 2026-04-25 22:01 | -24.26768 | 114.92994 | 30994 ft | 540 kts | 130° |
| 2026-04-25 22:02 | -24.32248 | 115.00467 | 30998 ft | 540 kts | 130° |
| 2026-04-25 22:02 | -24.36948 | 115.06885 | 31015 ft | 540 kts | 131° |
| 2026-04-25 22:03 | -24.41648 | 115.13311 | 31018 ft | 539 kts | 130° |
| 2026-04-25 22:03 | -24.46348 | 115.19746 | 31001 ft | 540 kts | 130° |
| 2026-04-25 22:04 | -24.51045 | 115.26186 | 30998 ft | 540 kts | 130° |
| 2026-04-25 22:04 | -24.55733 | 115.32621 | 31002 ft | 540 kts | 130° |
| 2026-04-25 22:05 | -24.60411 | 115.39053 | 31019 ft | 538 kts | 131° |
| 2026-04-25 22:05 | -24.65086 | 115.45487 | 31020 ft | 538 kts | 131° |
| 2026-04-25 22:06 | -24.69751 | 115.51917 | 31000 ft | 538 kts | 131° |
| 2026-04-25 22:06 | -24.74415 | 115.58353 | 31002 ft | 538 kts | 131° |
| 2026-04-25 22:07 | -24.78292 | 115.63711 | 31019 ft | 538 kts | 131° |
| 2026-04-25 22:07 | -24.83704 | 115.71200 | 31020 ft | 537 kts | 131° |
| 2026-04-25 22:08 | -24.88359 | 115.77649 | 31027 ft | 538 kts | 131° |
| 2026-04-25 22:08 | -24.93014 | 115.84110 | 31026 ft | 538 kts | 131° |
| 2026-04-25 22:09 | -24.97661 | 115.90566 | 31026 ft | 538 kts | 131° |
| 2026-04-25 22:09 | -25.02307 | 115.97029 | 31024 ft | 538 kts | 131° |
| 2026-04-25 22:10 | -25.06951 | 116.03499 | 31018 ft | 538 kts | 131° |
| 2026-04-25 22:10 | -25.11606 | 116.09993 | 31022 ft | 540 kts | 131° |
| 2026-04-25 22:11 | -25.16256 | 116.16491 | 31030 ft | 539 kts | 131° |
| 2026-04-25 22:11 | -25.20874 | 116.22951 | 31037 ft | 539 kts | 131° |
| 2026-04-25 22:12 | -25.25517 | 116.29456 | 31055 ft | 538 kts | 131° |
| 2026-04-25 22:12 | -25.29367 | 116.34855 | 31033 ft | 538 kts | 131° |
| 2026-04-25 22:13 | -25.34781 | 116.42459 | 31063 ft | 538 kts | 131° |
| 2026-04-25 22:13 | -25.39411 | 116.48971 | 31043 ft | 538 kts | 131° |
| 2026-04-25 22:14 | -25.44007 | 116.55446 | 31043 ft | 538 kts | 131° |
| 2026-04-25 22:14 | -25.48619 | 116.61953 | 31069 ft | 536 kts | 131° |
| 2026-04-25 22:15 | -25.53217 | 116.68447 | 31080 ft | 537 kts | 131° |
| 2026-04-25 22:16 | -25.60128 | 116.78227 | 31082 ft | 537 kts | 131° |
| 2026-04-25 22:16 | -25.64726 | 116.84743 | 31063 ft | 537 kts | 131° |
| 2026-04-25 22:17 | -25.69285 | 116.91217 | 31064 ft | 534 kts | 131° |
| 2026-04-25 22:17 | -25.73860 | 116.97718 | 31074 ft | 536 kts | 131° |
| 2026-04-25 22:18 | -25.78448 | 117.04249 | 31080 ft | 537 kts | 131° |
| 2026-04-25 22:18 | -25.83039 | 117.10794 | 31081 ft | 536 kts | 131° |
| 2026-04-25 22:19 | -25.87620 | 117.17333 | 31083 ft | 537 kts | 131° |
| 2026-04-25 22:19 | -25.92195 | 117.23873 | 31095 ft | 535 kts | 131° |
| 2026-04-25 22:20 | -25.96759 | 117.30406 | 31091 ft | 535 kts | 131° |
| 2026-04-25 22:20 | -26.01315 | 117.36937 | 31094 ft | 535 kts | 131° |
| 2026-04-25 22:21 | -26.05850 | 117.43445 | 31094 ft | 535 kts | 131° |
| 2026-04-25 22:21 | -26.10408 | 117.49992 | 31100 ft | 534 kts | 131° |
| 2026-04-25 22:22 | -26.14978 | 117.56506 | 31102 ft | 533 kts | 133° |
| 2026-04-25 22:22 | -26.19771 | 117.62789 | 31108 ft | 532 kts | 134° |
| 2026-04-25 22:23 | -26.24577 | 117.69064 | 31105 ft | 533 kts | 134° |
| 2026-04-25 22:23 | -26.29357 | 117.75372 | 31111 ft | 533 kts | 134° |
| 2026-04-25 22:24 | -26.34126 | 117.81692 | 31114 ft | 533 kts | 134° |
| 2026-04-25 22:24 | -26.38861 | 117.87979 | 31118 ft | 533 kts | 133° |
| 2026-04-25 22:25 | -26.43628 | 117.94317 | 31118 ft | 533 kts | 133° |
| 2026-04-25 22:25 | -26.48390 | 118.00658 | 31118 ft | 533 kts | 133° |
| 2026-04-25 22:26 | -26.53152 | 118.07006 | 31130 ft | 533 kts | 133° |
| 2026-04-25 22:26 | -26.57885 | 118.13328 | 31124 ft | 530 kts | 133° |
| 2026-04-25 22:27 | -26.62615 | 118.19651 | 31126 ft | 530 kts | 133° |
| 2026-04-25 22:27 | -26.67344 | 118.25983 | 31127 ft | 530 kts | 133° |
| 2026-04-25 22:28 | -26.72071 | 118.32320 | 31136 ft | 530 kts | 133° |
| 2026-04-25 22:28 | -26.76790 | 118.38658 | 31147 ft | 529 kts | 133° |
| 2026-04-25 22:29 | -26.81495 | 118.44985 | 31136 ft | 528 kts | 133° |
| 2026-04-25 22:29 | -26.86161 | 118.51267 | 31143 ft | 528 kts | 133° |
| 2026-04-25 22:30 | -26.93202 | 118.60767 | 31149 ft | 528 kts | 133° |
| 2026-04-25 22:30 | -26.97100 | 118.66034 | 31149 ft | 528 kts | 133° |
| 2026-04-25 22:31 | -27.02575 | 118.73443 | 31151 ft | 527 kts | 133° |
| 2026-04-25 22:31 | -27.07252 | 118.79781 | 31151 ft | 527 kts | 133° |
| 2026-04-25 22:32 | -27.11928 | 118.86128 | 31157 ft | 527 kts | 133° |
| 2026-04-25 22:32 | -27.16596 | 118.92474 | 31157 ft | 527 kts | 133° |
| 2026-04-25 22:33 | -27.21227 | 118.98778 | 31163 ft | 525 kts | 133° |
| 2026-04-25 22:33 | -27.25874 | 119.05114 | 31168 ft | 525 kts | 133° |
| 2026-04-25 22:34 | -27.30513 | 119.11446 | 31168 ft | 525 kts | 133° |
| 2026-04-25 22:34 | -27.35157 | 119.17795 | 31176 ft | 525 kts | 133° |
| 2026-04-25 22:35 | -27.39795 | 119.24146 | 31176 ft | 525 kts | 133° |
| 2026-04-25 22:35 | -27.44416 | 119.30484 | 31179 ft | 523 kts | 133° |
| 2026-04-25 22:36 | -27.49038 | 119.36829 | 31179 ft | 523 kts | 133° |
| 2026-04-25 22:36 | -27.53648 | 119.43169 | 31178 ft | 523 kts | 133° |
| 2026-04-25 22:37 | -27.58229 | 119.49477 | 31191 ft | 524 kts | 133° |
| 2026-04-25 22:37 | -27.62842 | 119.55841 | 31185 ft | 524 kts | 134° |
| 2026-04-25 22:38 | -27.67442 | 119.62194 | 31191 ft | 523 kts | 134° |
| 2026-04-25 22:38 | -27.72042 | 119.68557 | 31191 ft | 523 kts | 134° |
| 2026-04-25 22:39 | -27.76639 | 119.74924 | 31192 ft | 523 kts | 134° |
| 2026-04-25 22:39 | -27.81248 | 119.81319 | 31192 ft | 525 kts | 134° |
| 2026-04-25 22:40 | -27.85856 | 119.87723 | 31198 ft | 525 kts | 134° |
| 2026-04-25 22:40 | -27.90459 | 119.94129 | 31203 ft | 524 kts | 134° |
| 2026-04-25 22:41 | -27.95056 | 120.00536 | 31203 ft | 525 kts | 134° |
| 2026-04-25 22:41 | -27.99621 | 120.06907 | 31203 ft | 525 kts | 134° |
| 2026-04-25 22:42 | -28.04208 | 120.13319 | 31206 ft | 524 kts | 134° |
| 2026-04-25 22:42 | -28.08798 | 120.19743 | 31206 ft | 524 kts | 134° |
| 2026-04-25 22:43 | -28.13381 | 120.26168 | 31214 ft | 524 kts | 134° |
| 2026-04-25 22:43 | -28.17958 | 120.32595 | 31211 ft | 524 kts | 134° |
| 2026-04-25 22:44 | -28.22509 | 120.38995 | 31216 ft | 524 kts | 134° |
| 2026-04-25 22:44 | -28.27080 | 120.45432 | 31216 ft | 523 kts | 134° |
| 2026-04-25 22:45 | -28.31647 | 120.51874 | 31219 ft | 524 kts | 134° |
| 2026-04-25 22:45 | -28.36207 | 120.58315 | 31232 ft | 524 kts | 134° |
| 2026-04-25 22:46 | -28.40779 | 120.64783 | 31225 ft | 525 kts | 134° |
| 2026-04-25 22:46 | -28.45349 | 120.71259 | 31227 ft | 525 kts | 134° |
| 2026-04-25 22:47 | -28.49921 | 120.77748 | 31231 ft | 525 kts | 134° |
| 2026-04-25 22:47 | -28.54483 | 120.84231 | 31245 ft | 525 kts | 133° |
| 2026-04-25 22:48 | -28.59039 | 120.90718 | 31235 ft | 524 kts | 133° |
| 2026-04-25 22:48 | -28.63592 | 120.97209 | 31231 ft | 525 kts | 134° |
| 2026-04-25 22:49 | -28.67373 | 121.02606 | 31238 ft | 525 kts | 134° |
| 2026-04-25 22:49 | -28.72660 | 121.10167 | 31254 ft | 525 kts | 134° |
| 2026-04-25 22:50 | -28.77203 | 121.16674 | 31244 ft | 525 kts | 134° |
| 2026-04-25 22:50 | -28.81014 | 121.22137 | 31254 ft | 525 kts | 134° |
| 2026-04-25 22:51 | -28.85528 | 121.28615 | 31245 ft | 525 kts | 134° |
| 2026-04-25 22:51 | -28.89678 | 121.35520 | 31253 ft | 533 kts | 124° |
| 2026-04-25 22:52 | -28.93358 | 121.42873 | 31248 ft | 534 kts | 126° |
| 2026-04-25 22:52 | -28.97085 | 121.50205 | 31258 ft | 534 kts | 126° |
| 2026-04-25 22:53 | -29.00796 | 121.57530 | 31256 ft | 532 kts | 126° |
| 2026-04-25 22:53 | -29.04503 | 121.64868 | 31257 ft | 533 kts | 126° |
| 2026-04-25 22:54 | -29.08200 | 121.72202 | 31270 ft | 532 kts | 126° |
| 2026-04-25 22:54 | -29.11859 | 121.79481 | 31263 ft | 531 kts | 126° |
| 2026-04-25 22:55 | -29.15529 | 121.86796 | 31263 ft | 530 kts | 126° |
| 2026-04-25 22:55 | -29.19199 | 121.94123 | 31263 ft | 531 kts | 126° |
| 2026-04-25 22:56 | -29.22870 | 122.01466 | 31263 ft | 531 kts | 125° |
| 2026-04-25 22:56 | -29.26535 | 122.08812 | 31266 ft | 531 kts | 125° |
| 2026-04-25 22:57 | -29.30195 | 122.16160 | 31268 ft | 531 kts | 125° |
| 2026-04-25 22:57 | -29.33827 | 122.23465 | 31271 ft | 531 kts | 125° |
| 2026-04-25 22:58 | -29.37479 | 122.30823 | 31268 ft | 531 kts | 125° |
| 2026-04-25 22:58 | -29.41128 | 122.38188 | 31267 ft | 531 kts | 125° |
| 2026-04-25 22:59 | -29.44776 | 122.45566 | 31274 ft | 532 kts | 125° |
| 2026-04-25 22:59 | -29.48420 | 122.52949 | 31277 ft | 531 kts | 125° |
| 2026-04-25 23:00 | -29.52057 | 122.60333 | 31275 ft | 532 kts | 125° |
| 2026-04-25 23:00 | -29.55698 | 122.67732 | 31287 ft | 531 kts | 124° |
| 2026-04-25 23:01 | -29.59323 | 122.75120 | 31283 ft | 531 kts | 124° |
| 2026-04-25 23:01 | -29.62948 | 122.82519 | 31283 ft | 531 kts | 124° |
| 2026-04-25 23:02 | -29.66567 | 122.89918 | 31290 ft | 531 kts | 123° |
| 2026-04-25 23:02 | -29.70170 | 122.97300 | 31291 ft | 529 kts | 123° |
| 2026-04-25 23:03 | -29.73754 | 123.04658 | 31293 ft | 525 kts | 122° |
| 2026-04-25 23:03 | -29.77321 | 123.11993 | 31293 ft | 525 kts | 122° |
| 2026-04-25 23:04 | -29.80859 | 123.19278 | 31293 ft | 525 kts | 122° |
| 2026-04-25 23:04 | -29.84411 | 123.26609 | 31292 ft | 524 kts | 122° |
| 2026-04-25 23:05 | -29.87953 | 123.33930 | 31292 ft | 522 kts | 121° |
| 2026-04-25 23:05 | -29.91481 | 123.41243 | 31296 ft | 521 kts | 121° |
| 2026-04-25 23:06 | -29.95002 | 123.48550 | 31297 ft | 522 kts | 121° |
| 2026-04-25 23:06 | -29.98522 | 123.55869 | 31298 ft | 522 kts | 121° |
| 2026-04-25 23:07 | -30.02041 | 123.63198 | 31301 ft | 520 kts | 121° |
| 2026-04-25 23:07 | -30.05539 | 123.70499 | 31296 ft | 518 kts | 120° |
| 2026-04-25 23:08 | -30.08992 | 123.77720 | 31304 ft | 517 kts | 120° |
| 2026-04-25 23:08 | -30.12469 | 123.85003 | 31307 ft | 518 kts | 120° |
| 2026-04-25 23:09 | -30.15944 | 123.92295 | 31310 ft | 517 kts | 120° |
| 2026-04-25 23:09 | -30.19390 | 123.99541 | 31306 ft | 512 kts | 119° |
| 2026-04-25 23:10 | -30.22820 | 124.06766 | 31311 ft | 512 kts | 119° |
| 2026-04-25 23:10 | -30.26246 | 124.13997 | 31309 ft | 513 kts | 119° |
| 2026-04-25 23:11 | -30.29671 | 124.21238 | 31306 ft | 513 kts | 119° |
| 2026-04-25 23:11 | -30.33071 | 124.28440 | 31303 ft | 507 kts | 118° |
| 2026-04-25 23:12 | -30.36450 | 124.35611 | 31312 ft | 507 kts | 118° |
| 2026-04-25 23:12 | -30.39832 | 124.42800 | 31314 ft | 508 kts | 118° |
| 2026-04-25 23:13 | -30.43184 | 124.49939 | 31309 ft | 507 kts | 118° |
| 2026-04-25 23:13 | -30.46537 | 124.57094 | 31308 ft | 503 kts | 118° |
| 2026-04-25 23:14 | -30.49872 | 124.64225 | 31307 ft | 503 kts | 118° |
| 2026-04-25 23:14 | -30.53212 | 124.71380 | 31311 ft | 504 kts | 118° |
| 2026-04-25 23:15 | -30.56538 | 124.78515 | 31309 ft | 502 kts | 117° |
| 2026-04-25 23:15 | -30.59847 | 124.85629 | 31313 ft | 501 kts | 117° |
| 2026-04-25 23:16 | -30.63154 | 124.92754 | 31311 ft | 501 kts | 117° |
| 2026-04-25 23:16 | -30.66457 | 124.99880 | 31314 ft | 501 kts | 117° |
| 2026-04-25 23:17 | -30.69728 | 125.06953 | 31323 ft | 500 kts | 117° |
| 2026-04-25 23:17 | -30.73018 | 125.14078 | 31320 ft | 500 kts | 117° |
| 2026-04-25 23:18 | -30.76307 | 125.21214 | 31316 ft | 500 kts | 117° |
| 2026-04-25 23:18 | -30.79590 | 125.28351 | 31322 ft | 500 kts | 117° |
| 2026-04-25 23:19 | -30.82866 | 125.35487 | 31314 ft | 499 kts | 117° |
| 2026-04-25 23:19 | -30.86135 | 125.42619 | 31318 ft | 499 kts | 117° |
| 2026-04-25 23:20 | -30.89396 | 125.49749 | 31319 ft | 499 kts | 117° |
| 2026-04-25 23:20 | -30.92656 | 125.56890 | 31322 ft | 500 kts | 117° |
| 2026-04-25 23:21 | -30.95917 | 125.64047 | 31322 ft | 499 kts | 117° |
| 2026-04-25 23:21 | -30.99148 | 125.71150 | 31325 ft | 500 kts | 117° |
| 2026-04-25 23:22 | -31.02395 | 125.78303 | 31328 ft | 499 kts | 117° |
| 2026-04-25 23:23 | -31.07273 | 125.89073 | 31328 ft | 501 kts | 117° |
| 2026-04-25 23:23 | -31.10514 | 125.96245 | 31330 ft | 497 kts | 117° |
| 2026-04-25 23:24 | -31.13741 | 126.03401 | 31334 ft | 499 kts | 117° |
| 2026-04-25 23:24 | -31.16953 | 126.10538 | 31338 ft | 499 kts | 117° |
| 2026-04-25 23:25 | -31.20176 | 126.17711 | 31338 ft | 497 kts | 117° |
| 2026-04-25 23:25 | -31.23382 | 126.24862 | 31342 ft | 497 kts | 117° |
| 2026-04-25 23:26 | -31.26592 | 126.32035 | 31336 ft | 500 kts | 117° |
| 2026-04-25 23:26 | -31.29804 | 126.39226 | 31341 ft | 499 kts | 117° |
| 2026-04-25 23:27 | -31.33012 | 126.46422 | 31341 ft | 498 kts | 117° |
| 2026-04-25 23:27 | -31.36210 | 126.53609 | 31331 ft | 498 kts | 117° |
| 2026-04-25 23:28 | -31.39403 | 126.60798 | 31340 ft | 498 kts | 117° |
| 2026-04-25 23:28 | -31.42591 | 126.67991 | 31336 ft | 498 kts | 117° |
| 2026-04-25 23:29 | -31.45775 | 126.75189 | 31327 ft | 498 kts | 118° |
| 2026-04-25 23:29 | -31.48958 | 126.82398 | 31331 ft | 498 kts | 118° |
| 2026-04-25 23:30 | -31.52137 | 126.89614 | 31329 ft | 498 kts | 118° |
| 2026-04-25 23:30 | -31.55314 | 126.96835 | 31330 ft | 499 kts | 118° |
| 2026-04-25 23:31 | -31.58490 | 127.04072 | 31322 ft | 499 kts | 118° |
| 2026-04-25 23:31 | -31.61663 | 127.11315 | 31328 ft | 499 kts | 118° |
| 2026-04-25 23:32 | -31.64832 | 127.18565 | 31333 ft | 499 kts | 118° |
| 2026-04-25 23:32 | -31.67983 | 127.25785 | 31320 ft | 500 kts | 118° |
| 2026-04-25 23:33 | -31.71151 | 127.33059 | 31327 ft | 500 kts | 118° |
| 2026-04-25 23:33 | -31.74316 | 127.40343 | 31328 ft | 500 kts | 118° |
| 2026-04-25 23:34 | -31.77475 | 127.47625 | 31339 ft | 500 kts | 118° |
| 2026-04-25 23:34 | -31.80632 | 127.54918 | 31337 ft | 501 kts | 118° |
| 2026-04-25 23:35 | -31.83789 | 127.62226 | 31332 ft | 500 kts | 118° |
| 2026-04-25 23:35 | -31.86938 | 127.69528 | 31331 ft | 500 kts | 118° |
| 2026-04-25 23:36 | -31.90078 | 127.76821 | 31318 ft | 501 kts | 118° |
| 2026-04-25 23:36 | -31.93211 | 127.84103 | 31315 ft | 501 kts | 118° |
| 2026-04-25 23:37 | -31.96354 | 127.91425 | 31312 ft | 501 kts | 118° |
| 2026-04-25 23:37 | -31.99476 | 127.98753 | 31313 ft | 501 kts | 116° |
| 2026-04-25 23:38 | -32.02055 | 128.06384 | 31314 ft | 502 kts | 111° |
| 2026-04-25 23:38 | -32.04135 | 128.12757 | 31319 ft | 502 kts | 112° |
| 2026-04-25 23:39 | -32.06656 | 128.20427 | 31330 ft | 501 kts | 112° |
| 2026-04-25 23:39 | -32.09158 | 128.28094 | 31314 ft | 501 kts | 112° |
| 2026-04-25 23:40 | -32.11656 | 128.35779 | 31310 ft | 502 kts | 112° |
| 2026-04-25 23:40 | -32.14148 | 128.43468 | 31316 ft | 502 kts | 112° |
| 2026-04-25 23:41 | -32.16632 | 128.51161 | 31312 ft | 502 kts | 112° |
| 2026-04-25 23:41 | -32.19112 | 128.58861 | 31314 ft | 502 kts | 112° |
| 2026-04-25 23:42 | -32.21587 | 128.66568 | 31321 ft | 502 kts | 112° |
| 2026-04-25 23:42 | -32.24058 | 128.74280 | 31317 ft | 502 kts | 112° |
| 2026-04-25 23:43 | -32.26511 | 128.81953 | 31318 ft | 502 kts | 112° |
| 2026-04-25 23:43 | -32.28974 | 128.89677 | 31316 ft | 502 kts | 112° |
| 2026-04-25 23:44 | -32.31430 | 128.97398 | 31321 ft | 502 kts | 112° |
| 2026-04-25 23:44 | -32.33885 | 129.05135 | 31317 ft | 503 kts | 112° |
| 2026-04-25 23:45 | -32.36335 | 129.12877 | 31317 ft | 503 kts | 112° |
| 2026-04-25 23:45 | -32.38779 | 129.20617 | 31317 ft | 502 kts | 112° |
| 2026-04-25 23:46 | -32.41217 | 129.28360 | 31325 ft | 502 kts | 112° |
| 2026-04-25 23:46 | -32.43657 | 129.36124 | 31316 ft | 504 kts | 112° |
| 2026-04-25 23:47 | -32.46088 | 129.43882 | 31314 ft | 502 kts | 112° |
| 2026-04-25 23:47 | -32.48514 | 129.51643 | 31315 ft | 503 kts | 112° |
| 2026-04-25 23:48 | -32.50938 | 129.59417 | 31318 ft | 503 kts | 112° |
| 2026-04-25 23:48 | -32.53357 | 129.67192 | 31314 ft | 503 kts | 112° |
| 2026-04-25 23:49 | -32.55774 | 129.74981 | 31310 ft | 503 kts | 112° |
| 2026-04-25 23:49 | -32.58185 | 129.82775 | 31320 ft | 503 kts | 112° |
| 2026-04-25 23:50 | -32.60586 | 129.90551 | 31315 ft | 503 kts | 112° |
| 2026-04-25 23:50 | -32.62987 | 129.98348 | 31314 ft | 503 kts | 112° |
| 2026-04-25 23:51 | -32.65382 | 130.06147 | 31312 ft | 502 kts | 112° |
| 2026-04-25 23:51 | -32.67769 | 130.13939 | 31313 ft | 502 kts | 112° |
| 2026-04-25 23:52 | -32.70153 | 130.21740 | 31311 ft | 503 kts | 112° |
| 2026-04-25 23:52 | -32.72517 | 130.29496 | 31318 ft | 502 kts | 112° |
| 2026-04-25 23:53 | -32.74891 | 130.37305 | 31316 ft | 502 kts | 112° |
| 2026-04-25 23:53 | -32.77257 | 130.45109 | 31317 ft | 502 kts | 112° |
| 2026-04-25 23:54 | -32.79619 | 130.52920 | 31310 ft | 502 kts | 112° |
| 2026-04-25 23:54 | -32.81977 | 130.60735 | 31309 ft | 502 kts | 112° |
| 2026-04-25 23:55 | -32.84330 | 130.68554 | 31309 ft | 502 kts | 112° |
| 2026-04-25 23:55 | -32.86677 | 130.76377 | 31306 ft | 502 kts | 112° |
| 2026-04-25 23:56 | -32.89023 | 130.84212 | 31300 ft | 503 kts | 112° |
| 2026-04-25 23:56 | -32.91364 | 130.92056 | 31306 ft | 503 kts | 112° |
| 2026-04-25 23:57 | -32.93700 | 130.99900 | 31306 ft | 502 kts | 112° |
| 2026-04-25 23:57 | -32.96013 | 131.07690 | 31306 ft | 502 kts | 112° |
| 2026-04-25 23:58 | -32.98337 | 131.15536 | 31304 ft | 502 kts | 112° |
| 2026-04-25 23:58 | -33.00650 | 131.23365 | 31306 ft | 501 kts | 112° |
| 2026-04-25 23:59 | -33.02960 | 131.31206 | 31306 ft | 501 kts | 112° |
| 2026-04-25 23:59 | -33.05267 | 131.39056 | 31306 ft | 501 kts | 112° |
| 2026-04-26 00:00 | -33.07565 | 131.46898 | 31303 ft | 501 kts | 112° |
| 2026-04-26 00:00 | -33.09862 | 131.54753 | 31306 ft | 502 kts | 112° |
| 2026-04-26 00:01 | -33.12150 | 131.62606 | 31303 ft | 500 kts | 112° |
| 2026-04-26 00:01 | -33.14431 | 131.70451 | 31300 ft | 502 kts | 112° |
| 2026-04-26 00:02 | -33.16716 | 131.78330 | 31305 ft | 502 kts | 112° |
| 2026-04-26 00:02 | -33.18972 | 131.86132 | 31300 ft | 500 kts | 112° |
| 2026-04-26 00:03 | -33.21253 | 131.94041 | 31304 ft | 501 kts | 112° |
| 2026-04-26 00:03 | -33.23503 | 132.01862 | 31301 ft | 501 kts | 112° |
| 2026-04-26 00:04 | -33.25761 | 132.09734 | 31295 ft | 500 kts | 112° |
| 2026-04-26 00:04 | -33.28014 | 132.17608 | 31295 ft | 501 kts | 112° |
| 2026-04-26 00:05 | -33.30252 | 132.25454 | 31293 ft | 500 kts | 112° |
| 2026-04-26 00:05 | -33.32503 | 132.33367 | 31291 ft | 501 kts | 112° |
| 2026-04-26 00:06 | -33.34739 | 132.41247 | 31294 ft | 501 kts | 112° |
| 2026-04-26 00:06 | -33.36967 | 132.49121 | 31293 ft | 499 kts | 112° |
| 2026-04-26 00:07 | -33.39192 | 132.57004 | 31292 ft | 501 kts | 112° |
| 2026-04-26 00:07 | -33.41399 | 132.64848 | 31289 ft | 499 kts | 113° |
| 2026-04-26 00:08 | -33.43610 | 132.72729 | 31287 ft | 499 kts | 113° |
| 2026-04-26 00:08 | -33.45818 | 132.80617 | 31288 ft | 500 kts | 113° |
| 2026-04-26 00:09 | -33.48024 | 132.88517 | 31287 ft | 501 kts | 113° |
| 2026-04-26 00:09 | -33.50226 | 132.96430 | 31287 ft | 500 kts | 112° |
| 2026-04-26 00:10 | -33.52419 | 133.04336 | 31286 ft | 499 kts | 113° |
| 2026-04-26 00:10 | -33.54603 | 133.12224 | 31287 ft | 500 kts | 113° |
| 2026-04-26 00:11 | -33.56790 | 133.20148 | 31285 ft | 500 kts | 113° |
| 2026-04-26 00:11 | -33.58966 | 133.28056 | 31283 ft | 498 kts | 113° |
| 2026-04-26 00:12 | -33.61131 | 133.35948 | 31284 ft | 499 kts | 113° |
| 2026-04-26 00:12 | -33.63303 | 133.43879 | 31289 ft | 500 kts | 113° |
| 2026-04-26 00:13 | -33.65460 | 133.51788 | 31278 ft | 498 kts | 113° |
| 2026-04-26 00:13 | -33.67612 | 133.59696 | 31287 ft | 498 kts | 113° |
| 2026-04-26 00:14 | -33.69760 | 133.67611 | 31278 ft | 499 kts | 113° |
| 2026-04-26 00:14 | -33.71892 | 133.75488 | 31278 ft | 498 kts | 113° |
| 2026-04-26 00:15 | -33.74029 | 133.83410 | 31282 ft | 499 kts | 113° |
| 2026-04-26 00:15 | -33.76158 | 133.91326 | 31275 ft | 498 kts | 113° |
| 2026-04-26 00:16 | -33.78284 | 133.99249 | 31276 ft | 498 kts | 113° |
| 2026-04-26 00:16 | -33.80402 | 134.07168 | 31280 ft | 497 kts | 113° |
| 2026-04-26 00:17 | -33.82513 | 134.15082 | 31274 ft | 498 kts | 113° |
| 2026-04-26 00:17 | -33.84611 | 134.22970 | 31284 ft | 499 kts | 113° |
| 2026-04-26 00:18 | -33.86714 | 134.30905 | 31272 ft | 497 kts | 113° |
| 2026-04-26 00:18 | -33.88810 | 134.38830 | 31274 ft | 497 kts | 113° |
| 2026-04-26 00:19 | -33.90900 | 134.46759 | 31275 ft | 496 kts | 113° |
| 2026-04-26 00:19 | -33.92984 | 134.54688 | 31271 ft | 496 kts | 113° |
| 2026-04-26 00:20 | -33.95048 | 134.62561 | 31273 ft | 496 kts | 113° |
| 2026-04-26 00:20 | -33.97117 | 134.70479 | 31271 ft | 495 kts | 114° |
| 2026-04-26 00:21 | -33.99179 | 134.78393 | 31272 ft | 495 kts | 114° |
| 2026-04-26 00:21 | -34.01236 | 134.86309 | 31268 ft | 495 kts | 113° |
| 2026-04-26 00:22 | -34.03290 | 134.94238 | 31270 ft | 496 kts | 113° |
| 2026-04-26 00:22 | -34.05339 | 135.02174 | 31281 ft | 494 kts | 114° |
| 2026-04-26 00:23 | -34.07373 | 135.10062 | 31281 ft | 492 kts | 114° |
| 2026-04-26 00:23 | -34.09408 | 135.17961 | 31280 ft | 493 kts | 114° |
| 2026-04-26 00:24 | -34.11424 | 135.25814 | 31276 ft | 493 kts | 114° |
| 2026-04-26 00:24 | -34.13446 | 135.33722 | 31270 ft | 493 kts | 113° |
| 2026-04-26 00:25 | -34.15467 | 135.41617 | 31261 ft | 491 kts | 115° |
| 2026-04-26 00:25 | -34.17639 | 135.49436 | 31271 ft | 491 kts | 115° |
| 2026-04-26 00:26 | -34.19767 | 135.57270 | 31265 ft | 491 kts | 115° |
| 2026-04-26 00:26 | -34.21872 | 135.65118 | 31266 ft | 490 kts | 115° |
| 2026-04-26 00:27 | -34.23611 | 135.71630 | 31266 ft | 490 kts | 115° |
| 2026-04-26 00:27 | -34.25700 | 135.79472 | 31278 ft | 490 kts | 115° |
| 2026-04-26 00:28 | -34.27784 | 135.87316 | 31254 ft | 489 kts | 115° |
| 2026-04-26 00:28 | -34.29861 | 135.95151 | 31257 ft | 490 kts | 115° |
| 2026-04-26 00:29 | -34.31919 | 136.02945 | 31256 ft | 489 kts | 115° |
| 2026-04-26 00:29 | -34.33999 | 136.10841 | 31255 ft | 489 kts | 115° |
| 2026-04-26 00:30 | -34.36047 | 136.18637 | 31272 ft | 488 kts | 115° |
| 2026-04-26 00:30 | -34.38095 | 136.26457 | 31252 ft | 487 kts | 115° |
| 2026-04-26 00:31 | -34.40137 | 136.34275 | 31249 ft | 487 kts | 115° |
| 2026-04-26 00:31 | -34.42169 | 136.42085 | 31248 ft | 484 kts | 115° |
| 2026-04-26 00:32 | -34.44190 | 136.49866 | 31246 ft | 484 kts | 115° |
| 2026-04-26 00:32 | -34.47214 | 136.61557 | 31247 ft | 483 kts | 115° |
| 2026-04-26 00:33 | -34.49213 | 136.69318 | 31244 ft | 482 kts | 115° |
| 2026-04-26 00:33 | -34.51210 | 136.77082 | 31243 ft | 483 kts | 115° |
| 2026-04-26 00:34 | -34.53195 | 136.84832 | 31237 ft | 480 kts | 115° |
| 2026-04-26 00:34 | -34.55171 | 136.92569 | 31238 ft | 480 kts | 115° |
| 2026-04-26 00:35 | -34.57132 | 137.00274 | 31233 ft | 479 kts | 116° |
| 2026-04-26 00:35 | -34.59090 | 137.07989 | 31238 ft | 478 kts | 115° |
| 2026-04-26 00:36 | -34.61048 | 137.15718 | 31237 ft | 479 kts | 115° |
| 2026-04-26 00:36 | -34.63004 | 137.23467 | 31239 ft | 479 kts | 115° |
| 2026-04-26 00:37 | -34.64938 | 137.31154 | 31228 ft | 479 kts | 115° |
| 2026-04-26 00:37 | -34.66880 | 137.38897 | 31254 ft | 478 kts | 116° |
| 2026-04-26 00:38 | -34.68808 | 137.46609 | 31234 ft | 476 kts | 116° |
| 2026-04-26 00:38 | -34.70731 | 137.54313 | 31236 ft | 477 kts | 116° |
| 2026-04-26 00:39 | -34.72651 | 137.62034 | 31242 ft | 476 kts | 116° |
| 2026-04-26 00:39 | -34.74556 | 137.69723 | 31238 ft | 475 kts | 116° |
| 2026-04-26 00:40 | -34.76459 | 137.77416 | 31236 ft | 475 kts | 116° |
| 2026-04-26 00:40 | -34.78355 | 137.85118 | 31233 ft | 474 kts | 116° |
| 2026-04-26 00:41 | -34.80241 | 137.92796 | 31233 ft | 474 kts | 116° |
| 2026-04-26 00:41 | -34.82123 | 138.00479 | 31233 ft | 474 kts | 116° |
| 2026-04-26 00:42 | -34.83983 | 138.08103 | 31237 ft | 472 kts | 116° |
| 2026-04-26 00:42 | -34.85849 | 138.15763 | 31231 ft | 472 kts | 116° |
| 2026-04-26 00:43 | -34.87713 | 138.23442 | 31249 ft | 472 kts | 116° |
| 2026-04-26 00:43 | -34.89559 | 138.31081 | 31215 ft | 469 kts | 116° |
| 2026-04-26 00:44 | -34.91400 | 138.38704 | 31211 ft | 470 kts | 116° |
| 2026-04-26 00:44 | -34.93236 | 138.46340 | 31227 ft | 469 kts | 116° |
| 2026-04-26 00:45 | -34.95121 | 138.53912 | 31211 ft | 461 kts | 120° |
| 2026-04-26 00:45 | -34.97367 | 138.61183 | 31211 ft | 461 kts | 120° |
| 2026-04-26 00:46 | -34.99603 | 138.68513 | 31214 ft | 460 kts | 120° |
| 2026-04-26 00:46 | -35.01826 | 138.75832 | 31226 ft | 460 kts | 120° |